Observation data for Goodnight on 01/21/2019      Previous  Date  Next       Current Mesonet Observations  Soil Data  Daily Summary Page  Observations in Plain Language
KGO1 210600Z 09004KT M02/M04 A2999 RMK A01 T10191042  RH  084%=      5-min Rain = 0
KGO1 210601Z 10004KT M02/M04 A2999 RMK A01 T10191042  RH  084%=      5-min Rain = 0
KGO1 210602Z 10004KT M02/M04 A2999 RMK A01 T10181042  RH  084%=      5-min Rain = 0
KGO1 210603Z 10004KT M02/M04 A2999 RMK A01 T10181042  RH  084%=      5-min Rain = 0
KGO1 210604Z 10004KT M02/M04 A2999 RMK A01 T10191043  RH  084%=      5-min Rain = 0
KGO1 210605Z 11004KT M02/M04 A2999 RMK A01 T10191043  RH  084%=      5-min Rain = 0
KGO1 210606Z 11004KT M02/M04 A2999 RMK A01 T10201043  RH  084%=      5-min Rain = 0
KGO1 210607Z 11004KT M02/M04 A2999 RMK A01 T10191042  RH  084%=      5-min Rain = 0
KGO1 210608Z 11003KT M02/M04 A2999 RMK A01 T10191042  RH  084%=      5-min Rain = 0
KGO1 210609Z 11004KT M02/M04 A2999 RMK A01 T10191043  RH  084%=      5-min Rain = 0
KGO1 210610Z 11004KT M02/M04 A2999 RMK A01 T10191043  RH  084%=      5-min Rain = 0
KGO1 210611Z 11004KT M02/M04 A2999 RMK A01 T10191042  RH  084%=      5-min Rain = 0
KGO1 210612Z 11004KT M02/M04 A2999 RMK A01 T10191043  RH  084%=      5-min Rain = 0
KGO1 210613Z 11004KT M02/M04 A2999 RMK A01 T10191042  RH  084%=      5-min Rain = 0
KGO1 210614Z 11004KT M02/M04 A2999 RMK A01 T10191043  RH  084%=      5-min Rain = 0
KGO1 210615Z 10004KT M02/M04 A2999 RMK A01 T10201043  RH  084%=      5-min Rain = 0
KGO1 210616Z 11003KT M02/M04 A2999 RMK A01 T10211044  RH  084%=      5-min Rain = 0
KGO1 210617Z 12003KT M02/M04 A2999 RMK A01 T10211044  RH  084%=      5-min Rain = 0
KGO1 210618Z 12003KT M02/M04 A2999 RMK A01 T10211043  RH  085%=      5-min Rain = 0
KGO1 210619Z 12004KT M02/M04 A2999 RMK A01 T10211043  RH  085%=      5-min Rain = 0
KGO1 210620Z 12004KT M02/M04 A2999 RMK A01 T10211043  RH  085%=      5-min Rain = 0
KGO1 210621Z 12004KT M02/M04 A2999 RMK A01 T10211043  RH  085%=      5-min Rain = 0
KGO1 210622Z 12004KT M02/M04 A2999 RMK A01 T10211043  RH  085%=      5-min Rain = 0
KGO1 210623Z 13003KT M02/M04 A2999 RMK A01 T10211042  RH  085%=      5-min Rain = 0
KGO1 210624Z 13003KT M02/M04 A2999 RMK A01 T10201042  RH  085%=      5-min Rain = 0
KGO1 210625Z 13004KT M02/M04 A2999 RMK A01 T10201041  RH  085%=      5-min Rain = 0
KGO1 210626Z 13004KT M02/M04 A2999 RMK A01 T10201042  RH  085%=      5-min Rain = 0
KGO1 210627Z 14004KT M02/M04 A2999 RMK A01 T10201042  RH  085%=      5-min Rain = 0
KGO1 210628Z 14003KT M02/M04 A2999 RMK A01 T10191042  RH  085%=      5-min Rain = 0
KGO1 210629Z 14003KT M02/M04 A2999 RMK A01 T10191042  RH  084%=      5-min Rain = 0
KGO1 210630Z 14003KT M02/M04 A2999 RMK A01 T10201042  RH  085%=      5-min Rain = 0
KGO1 210631Z 15003KT M02/M04 A2999 RMK A01 T10201042  RH  085%=      5-min Rain = 0
KGO1 210632Z 15004KT M02/M04 A2998 RMK A01 T10201042  RH  085%=      5-min Rain = 0
KGO1 210633Z 15004KT M02/M04 A2998 RMK A01 T10201043  RH  084%=      5-min Rain = 0
KGO1 210634Z 15003KT M02/M04 A2998 RMK A01 T10201043  RH  084%=      5-min Rain = 0
KGO1 210635Z 15003KT M02/M04 A2998 RMK A01 T10201044  RH  084%=      5-min Rain = 0
KGO1 210636Z 15004KT M02/M05 A2998 RMK A01 T10211046  RH  083%=      5-min Rain = 0
KGO1 210637Z 16004KT M02/M05 A2998 RMK A01 T10211045  RH  084%=      5-min Rain = 0
KGO1 210638Z 16004KT M02/M05 A2998 RMK A01 T10221045  RH  084%=      5-min Rain = 0
KGO1 210639Z 16004KT M02/M05 A2998 RMK A01 T10221046  RH  084%=      5-min Rain = 0
KGO1 210640Z 16004KT M02/M05 A2998 RMK A01 T10231047  RH  084%=      5-min Rain = 0
KGO1 210641Z 16004KT M02/M05 A2997 RMK A01 T10231047  RH  083%=      5-min Rain = 0
KGO1 210642Z 16004KT M02/M05 A2997 RMK A01 T10241049  RH  083%=      5-min Rain = 0
KGO1 210643Z 16004KT M02/M05 A2997 RMK A01 T10241050  RH  083%=      5-min Rain = 0
KGO1 210644Z 16003KT M03/M05 A2997 RMK A01 T10251050  RH  083%=      5-min Rain = 0
KGO1 210645Z 16003KT M03/M05 A2997 RMK A01 T10251049  RH  084%=      5-min Rain = 0
KGO1 210646Z 17003KT M03/M05 A2997 RMK A01 T10251049  RH  084%=      5-min Rain = 0
KGO1 210647Z 17003KT M03/M05 A2997 RMK A01 T10251048  RH  085%=      5-min Rain = 0
KGO1 210648Z 18003KT M03/M05 A2997 RMK A01 T10251047  RH  085%=      5-min Rain = 0
KGO1 210649Z 18003KT M02/M05 A2997 RMK A01 T10241046  RH  085%=      5-min Rain = 0
KGO1 210650Z 18003KT M02/M05 A2997 RMK A01 T10241046  RH  085%=      5-min Rain = 0
KGO1 210651Z 17003KT M02/M05 A2997 RMK A01 T10241046  RH  085%=      5-min Rain = 0
KGO1 210652Z 18003KT M02/M05 A2997 RMK A01 T10231046  RH  085%=      5-min Rain = 0
KGO1 210653Z 18003KT M02/M05 A2997 RMK A01 T10231045  RH  085%=      5-min Rain = 0
KGO1 210654Z 18004KT M02/M05 A2997 RMK A01 T10221045  RH  085%=      5-min Rain = 0
KGO1 210655Z 18004KT M02/M05 A2997 RMK A01 T10221045  RH  084%=      5-min Rain = 0
KGO1 210656Z 18004KT M02/M05 A2997 RMK A01 T10221045  RH  084%=      5-min Rain = 0
KGO1 210657Z 18004KT M02/M05 A2997 RMK A01 T10211045  RH  084%=      5-min Rain = 0
KGO1 210658Z 18004KT M02/M04 A2997 RMK A01 T10211044  RH  084%=      5-min Rain = 0
KGO1 210659Z 18004KT M02/M05 A2997 RMK A01 T10211045  RH  084%=      5-min Rain = 0
KGO1 210700Z 18004KT M02/M05 A2997 RMK A01 T10211045  RH  083%=      5-min Rain = 0
KGO1 210701Z 18005KT M02/M05 A2997 RMK A01 T10211045  RH  084%=      5-min Rain = 0
KGO1 210702Z 18005KT M02/M04 A2997 RMK A01 T10201044  RH  084%=      5-min Rain = 0
KGO1 210703Z 17005KT M02/M04 A2997 RMK A01 T10201044  RH  084%=      5-min Rain = 0
KGO1 210704Z 18005KT M02/M04 A2997 RMK A01 T10191044  RH  083%=      5-min Rain = 0
KGO1 210705Z 18005KT M02/M04 A2997 RMK A01 T10191044  RH  083%=      5-min Rain = 0
KGO1 210706Z 18005KT M02/M04 A2997 RMK A01 T10181043  RH  083%=      5-min Rain = 0
KGO1 210707Z 18005KT M02/M04 A2997 RMK A01 T10181042  RH  084%=      5-min Rain = 0
KGO1 210708Z 18006KT M02/M04 A2997 RMK A01 T10171041  RH  084%=      5-min Rain = 0
KGO1 210709Z 18006KT M02/M04 A2996 RMK A01 T10171041  RH  083%=      5-min Rain = 0
KGO1 210710Z 18006KT M02/M04 A2996 RMK A01 T10171041  RH  083%=      5-min Rain = 0
KGO1 210711Z 18006KT M02/M04 A2996 RMK A01 T10161041  RH  083%=      5-min Rain = 0
KGO1 210712Z 17007KT M02/M04 A2996 RMK A01 T10161041  RH  083%=      5-min Rain = 0
KGO1 210713Z 17007KT M02/M04 A2996 RMK A01 T10161041  RH  083%=      5-min Rain = 0
KGO1 210714Z 17007KT M02/M04 A2996 RMK A01 T10161041  RH  083%=      5-min Rain = 0
KGO1 210715Z 17007KT M02/M04 A2996 RMK A01 T10151041  RH  083%=      5-min Rain = 0
KGO1 210716Z 17007KT M02/M04 A2996 RMK A01 T10151040  RH  083%=      5-min Rain = 0
KGO1 210717Z 17007KT M01/M04 A2996 RMK A01 T10141040  RH  083%=      5-min Rain = 0
KGO1 210718Z 17007KT M01/M04 A2996 RMK A01 T10141039  RH  083%=      5-min Rain = 0
KGO1 210719Z 17008KT M01/M04 A2996 RMK A01 T10131039  RH  083%=      5-min Rain = 0
KGO1 210720Z 17007KT M01/M04 A2996 RMK A01 T10131038  RH  083%=      5-min Rain = 0
KGO1 210721Z 17008KT M01/M04 A2996 RMK A01 T10121038  RH  083%=      5-min Rain = 0
KGO1 210722Z 17007KT M01/M04 A2996 RMK A01 T10121038  RH  082%=      5-min Rain = 0
KGO1 210723Z 17007KT M01/M04 A2996 RMK A01 T10111038  RH  082%=      5-min Rain = 0
KGO1 210724Z 17007KT M01/M04 A2996 RMK A01 T10111038  RH  082%=      5-min Rain = 0
KGO1 210725Z 17008KT M01/M04 A2996 RMK A01 T10111037  RH  082%=      5-min Rain = 0
KGO1 210726Z 17008KT M01/M04 A2996 RMK A01 T10101037  RH  082%=      5-min Rain = 0
KGO1 210727Z 16008KT M01/M04 A2996 RMK A01 T10101036  RH  083%=      5-min Rain = 0
KGO1 210728Z 16009KT M01/M04 A2996 RMK A01 T10101036  RH  082%=      5-min Rain = 0
KGO1 210729Z 16009KT M01/M04 A2995 RMK A01 T10091036  RH  082%=      5-min Rain = 0
KGO1 210730Z 16009KT M01/M04 A2995 RMK A01 T10091035  RH  083%=      5-min Rain = 0
KGO1 210731Z 16009KT M01/M03 A2995 RMK A01 T10081033  RH  083%=      5-min Rain = 0
KGO1 210732Z 16009KT M01/M03 A2995 RMK A01 T10071033  RH  083%=      5-min Rain = 0
KGO1 210733Z 16009KT M01/M03 A2995 RMK A01 T10061032  RH  083%=      5-min Rain = 0
KGO1 210734Z 16009KT M01/M03 A2995 RMK A01 T10061032  RH  082%=      5-min Rain = 0
KGO1 210735Z 16009KT M01/M03 A2995 RMK A01 T10061032  RH  082%=      5-min Rain = 0
KGO1 210736Z 16008KT M01/M03 A2995 RMK A01 T10051031  RH  082%=      5-min Rain = 0
KGO1 210737Z 16008KT M00/M03 A2995 RMK A01 T10041031  RH  082%=      5-min Rain = 0
KGO1 210738Z 16008KT M00/M03 A2995 RMK A01 T10031030  RH  082%=      5-min Rain = 0
KGO1 210739Z 16007KT M00/M03 A2995 RMK A01 T10031030  RH  082%=      5-min Rain = 0
KGO1 210740Z 16007KT M00/M03 A2995 RMK A01 T10021030  RH  082%=      5-min Rain = 0
KGO1 210741Z 16006KT M00/M03 A2995 RMK A01 T10021030  RH  081%=      5-min Rain = 0
KGO1 210742Z 16006KT M00/M03 A2995 RMK A01 T10021030  RH  081%=      5-min Rain = 0
KGO1 210743Z 16006KT M00/M03 A2995 RMK A01 T10011030  RH  081%=      5-min Rain = 0
KGO1 210744Z 16005KT M00/M03 A2995 RMK A01 T10011030  RH  081%=      5-min Rain = 0
KGO1 210745Z 16005KT M00/M03 A2995 RMK A01 T10011030  RH  081%=      5-min Rain = 0
KGO1 210746Z 16005KT M00/M03 A2995 RMK A01 T10011030  RH  081%=      5-min Rain = 0
KGO1 210747Z 16005KT M00/M03 A2995 RMK A01 T10011030  RH  081%=      5-min Rain = 0
KGO1 210748Z 16004KT M00/M03 A2995 RMK A01 T10011030  RH  081%=      5-min Rain = 0
KGO1 210749Z 16004KT M00/M03 A2995 RMK A01 T10011031  RH  081%=      5-min Rain = 0
KGO1 210750Z 16003KT M00/M03 A2995 RMK A01 T10021031  RH  081%=      5-min Rain = 0
KGO1 210751Z 16003KT M00/M03 A2995 RMK A01 T10021030  RH  081%=      5-min Rain = 0
KGO1 210752Z 16002KT M00/M03 A2995 RMK A01 T10021030  RH  081%=      5-min Rain = 0
KGO1 210753Z 16002KT M00/M03 A2995 RMK A01 T10021030  RH  081%=      5-min Rain = 0
KGO1 210754Z 16003KT M00/M03 A2995 RMK A01 T10021030  RH  082%=      5-min Rain = 0
KGO1 210755Z 15004KT M00/M03 A2995 RMK A01 T10021030  RH  082%=      5-min Rain = 0
KGO1 210756Z 15004KT M00/M03 A2995 RMK A01 T10011029  RH  082%=      5-min Rain = 0
KGO1 210757Z 15004KT M00/M03 A2995 RMK A01 T10011029  RH  081%=      5-min Rain = 0
KGO1 210758Z 15004KT M00/M03 A2995 RMK A01 T10011029  RH  081%=      5-min Rain = 0
KGO1 210759Z 16004KT M00/M03 A2995 RMK A01 T10011029  RH  081%=      5-min Rain = 0
KGO1 210800Z 16004KT M00/M03 A2995 RMK A01 T10011029  RH  081%=      5-min Rain = 0
KGO1 210801Z 16004KT M00/M03 A2995 RMK A01 T10011030  RH  081%=      5-min Rain = 0
KGO1 210802Z 16003KT M00/M03 A2995 RMK A01 T10011030  RH  081%=      5-min Rain = 0
KGO1 210803Z 16003KT M00/M03 A2995 RMK A01 T10011030  RH  081%=      5-min Rain = 0
KGO1 210804Z 16003KT M00/M03 A2995 RMK A01 T10021031  RH  081%=      5-min Rain = 0
KGO1 210805Z 16004KT M00/M03 A2994 RMK A01 T10021031  RH  081%=      5-min Rain = 0
KGO1 210806Z 15003KT M00/M03 A2994 RMK A01 T10021030  RH  082%=      5-min Rain = 0
KGO1 210807Z 15005KT M00/M03 A2994 RMK A01 T10031030  RH  082%=      5-min Rain = 0
KGO1 210808Z 16004KT M00/M03 A2994 RMK A01 T10021030  RH  082%=      5-min Rain = 0
KGO1 210809Z 15005KT M00/M03 A2994 RMK A01 T10021031  RH  081%=      5-min Rain = 0
KGO1 210810Z 15005KT M00/M03 A2994 RMK A01 T10021031  RH  081%=      5-min Rain = 0
KGO1 210811Z 15005KT M00/M03 A2994 RMK A01 T10031031  RH  081%=      5-min Rain = 0
KGO1 210812Z 15005KT M00/M03 A2994 RMK A01 T10041033  RH  081%=      5-min Rain = 0
KGO1 210813Z 15005KT M00/M03 A2994 RMK A01 T10041032  RH  082%=      5-min Rain = 0
KGO1 210814Z 15006KT M01/M03 A2993 RMK A01 T10051032  RH  082%=      5-min Rain = 0
KGO1 210815Z 15006KT M01/M03 A2993 RMK A01 T10051031  RH  083%=      5-min Rain = 0
KGO1 210816Z 15006KT M01/M03 A2993 RMK A01 T10051030  RH  083%=      5-min Rain = 0
KGO1 210817Z 15006KT M00/M03 A2993 RMK A01 T10041029  RH  083%=      5-min Rain = 0
KGO1 210818Z 15007KT M00/M03 A2993 RMK A01 T10031029  RH  083%=      5-min Rain = 0
KGO1 210819Z 15007KT M00/M03 A2993 RMK A01 T10031029  RH  083%=      5-min Rain = 0
KGO1 210820Z 15007KT M00/M03 A2993 RMK A01 T10011028  RH  082%=      5-min Rain = 0
KGO1 210821Z 15007KT M00/M03 A2993 RMK A01 T10011028  RH  082%=      5-min Rain = 0
KGO1 210822Z 15007KT 00/03 A2993 RMK A01 T00-00-28  RH  082%=      5-min Rain = 0
KGO1 210823Z 15007KT 00/03 A2993 RMK A01 T00000-28  RH  081%=      5-min Rain = 0
KGO1 210824Z 15008KT 00/03 A2992 RMK A01 T00000-28  RH  081%=      5-min Rain = 0
KGO1 210825Z 15008KT 00/03 A2992 RMK A01 T00000-28  RH  081%=      5-min Rain = 0
KGO1 210826Z 15007KT 00/M03 A2993 RMK A01 T00011027  RH  081%=      5-min Rain = 0
KGO1 210827Z 15008KT 00/M03 A2993 RMK A01 T00011027  RH  081%=      5-min Rain = 0
KGO1 210828Z 15008KT 00/M03 A2993 RMK A01 T00021027  RH  081%=      5-min Rain = 0
KGO1 210829Z 15008KT 00/M03 A2993 RMK A01 T00021027  RH  081%=      5-min Rain = 0
KGO1 210830Z 15008KT 00/M03 A2993 RMK A01 T00021027  RH  081%=      5-min Rain = 0
KGO1 210831Z 15008KT 00/M03 A2992 RMK A01 T00021027  RH  081%=      5-min Rain = 0
KGO1 210832Z 15008KT 00/M03 A2992 RMK A01 T00031027  RH  081%=      5-min Rain = 0
KGO1 210833Z 15008KT 00/M03 A2992 RMK A01 T00031026  RH  081%=      5-min Rain = 0
KGO1 210834Z 15008KT 00/M03 A2992 RMK A01 T00031026  RH  081%=      5-min Rain = 0
KGO1 210835Z 15008KT 00/M03 A2992 RMK A01 T00041026  RH  080%=      5-min Rain = 0
KGO1 210836Z 15008KT 00/M03 A2992 RMK A01 T00041026  RH  080%=      5-min Rain = 0
KGO1 210837Z 15008KT 00/M03 A2992 RMK A01 T00031026  RH  080%=      5-min Rain = 0
KGO1 210838Z 15008KT 00/M03 A2992 RMK A01 T00031027  RH  080%=      5-min Rain = 0
KGO1 210839Z 15007KT 00/M03 A2992 RMK A01 T00031027  RH  080%=      5-min Rain = 0
KGO1 210840Z 15007KT 00/M03 A2992 RMK A01 T00041027  RH  080%=      5-min Rain = 0
KGO1 210841Z 15007KT 00/M03 A2992 RMK A01 T00041027  RH  080%=      5-min Rain = 0
KGO1 210842Z 15006KT 00/M03 A2992 RMK A01 T00041027  RH  080%=      5-min Rain = 0
KGO1 210843Z 15007KT 00/M03 A2992 RMK A01 T00041027  RH  080%=      5-min Rain = 0
KGO1 210844Z 15006KT 00/M03 A2992 RMK A01 T00031027  RH  080%=      5-min Rain = 0
KGO1 210845Z 15006KT 00/M03 A2992 RMK A01 T00041027  RH  080%=      5-min Rain = 0
KGO1 210846Z 15006KT 00/M03 A2992 RMK A01 T00041027  RH  080%=      5-min Rain = 0
KGO1 210847Z 15006KT 00/M03 A2992 RMK A01 T00041027  RH  080%=      5-min Rain = 0
KGO1 210848Z 16006KT 00/M03 A2992 RMK A01 T00041027  RH  080%=      5-min Rain = 0
KGO1 210849Z 16006KT 00/M03 A2992 RMK A01 T00031028  RH  080%=      5-min Rain = 0
KGO1 210850Z 16006KT 00/M03 A2992 RMK A01 T00031028  RH  080%=      5-min Rain = 0
KGO1 210851Z 16006KT 00/M03 A2992 RMK A01 T00021028  RH  080%=      5-min Rain = 0
KGO1 210852Z 16007KT 00/M03 A2992 RMK A01 T00021028  RH  080%=      5-min Rain = 0
KGO1 210853Z 16007KT 00/M03 A2992 RMK A01 T00021029  RH  080%=      5-min Rain = 0
KGO1 210854Z 15007KT 00/M03 A2992 RMK A01 T00011029  RH  080%=      5-min Rain = 0
KGO1 210855Z 16008KT 00/M03 A2992 RMK A01 T00011029  RH  081%=      5-min Rain = 0
KGO1 210856Z 15008KT 00/M03 A2992 RMK A01 T00011029  RH  081%=      5-min Rain = 0
KGO1 210857Z 15007KT 00/M03 A2992 RMK A01 T00011028  RH  081%=      5-min Rain = 0
KGO1 210858Z 15007KT 00/M03 A2992 RMK A01 T00011028  RH  081%=      5-min Rain = 0
KGO1 210859Z 16007KT 00/03 A2992 RMK A01 T00000-29  RH  081%=      5-min Rain = 0
KGO1 210900Z 16007KT 00/03 A2992 RMK A01 T00-00-29  RH  081%=      5-min Rain = 0
KGO1 210901Z 16006KT M00/M03 A2992 RMK A01 T10011030  RH  081%=      5-min Rain = 0
KGO1 210902Z 16006KT M00/M03 A2992 RMK A01 T10011030  RH  081%=      5-min Rain = 0
KGO1 210903Z 16006KT M00/M03 A2992 RMK A01 T10021030  RH  081%=      5-min Rain = 0
KGO1 210904Z 16006KT M00/M03 A2992 RMK A01 T10031031  RH  081%=      5-min Rain = 0
KGO1 210905Z 17006KT M00/M03 A2992 RMK A01 T10031031  RH  082%=      5-min Rain = 0
KGO1 210906Z 16007KT M00/M03 A2992 RMK A01 T10041031  RH  082%=      5-min Rain = 0
KGO1 210907Z 16007KT M00/M03 A2992 RMK A01 T10041031  RH  082%=      5-min Rain = 0
KGO1 210908Z 16007KT M00/M03 A2992 RMK A01 T10041031  RH  082%=      5-min Rain = 0
KGO1 210909Z 16007KT M01/M03 A2992 RMK A01 T10051031  RH  082%=      5-min Rain = 0
KGO1 210910Z 16007KT M01/M03 A2992 RMK A01 T10051032  RH  082%=      5-min Rain = 0
KGO1 210911Z 16007KT M01/M03 A2992 RMK A01 T10051031  RH  083%=      5-min Rain = 0
KGO1 210912Z 16007KT M01/M03 A2991 RMK A01 T10051031  RH  083%=      5-min Rain = 0
KGO1 210913Z 16007KT M01/M03 A2991 RMK A01 T10061031  RH  083%=      5-min Rain = 0
KGO1 210914Z 16007KT M01/M03 A2991 RMK A01 T10061031  RH  083%=      5-min Rain = 0
KGO1 210915Z 16006KT M01/M03 A2991 RMK A01 T10061031  RH  083%=      5-min Rain = 0
KGO1 210916Z 15007KT M01/M03 A2991 RMK A01 T10061032  RH  083%=      5-min Rain = 0
KGO1 210917Z 15007KT M01/M03 A2991 RMK A01 T10061031  RH  083%=      5-min Rain = 0
KGO1 210918Z 15006KT M01/M03 A2992 RMK A01 T10061030  RH  084%=      5-min Rain = 0
KGO1 210919Z 15006KT M01/M03 A2992 RMK A01 T10061030  RH  084%=      5-min Rain = 0
KGO1 210920Z 15006KT M01/M03 A2992 RMK A01 T10061030  RH  084%=      5-min Rain = 0
KGO1 210921Z 15005KT M01/M03 A2992 RMK A01 T10061030  RH  084%=      5-min Rain = 0
KGO1 210922Z 16006KT M01/M03 A2992 RMK A01 T10061030  RH  084%=      5-min Rain = 0
KGO1 210923Z 16006KT M01/M03 A2992 RMK A01 T10061030  RH  083%=      5-min Rain = 0
KGO1 210924Z 16006KT M01/M03 A2992 RMK A01 T10061030  RH  084%=      5-min Rain = 0
KGO1 210925Z 16006KT M01/M03 A2992 RMK A01 T10061030  RH  084%=      5-min Rain = 0
KGO1 210926Z 16006KT M01/M03 A2992 RMK A01 T10061030  RH  084%=      5-min Rain = 0
KGO1 210927Z 16006KT M01/M03 A2991 RMK A01 T10061030  RH  084%=      5-min Rain = 0
KGO1 210928Z 16006KT M01/M03 A2991 RMK A01 T10061031  RH  084%=      5-min Rain = 0
KGO1 210929Z 16006KT M01/M03 A2991 RMK A01 T10061031  RH  083%=      5-min Rain = 0
KGO1 210930Z 16006KT M01/M03 A2991 RMK A01 T10061031  RH  084%=      5-min Rain = 0
KGO1 210931Z 16006KT M01/M03 A2991 RMK A01 T10071031  RH  084%=      5-min Rain = 0
KGO1 210932Z 16007KT M01/M03 A2991 RMK A01 T10061030  RH  084%=      5-min Rain = 0
KGO1 210933Z 16007KT M01/M03 A2991 RMK A01 T10071031  RH  084%=      5-min Rain = 0
KGO1 210934Z 16007KT M01/M03 A2991 RMK A01 T10061030  RH  084%=      5-min Rain = 0
KGO1 210935Z 15007KT M01/M03 A2991 RMK A01 T10061031  RH  084%=      5-min Rain = 0
KGO1 210936Z 15007KT M01/M03 A2991 RMK A01 T10061031  RH  084%=      5-min Rain = 0
KGO1 210937Z 15008KT M01/M03 A2991 RMK A01 T10061030  RH  084%=      5-min Rain = 0
KGO1 210938Z 15008KT M01/M03 A2991 RMK A01 T10061031  RH  084%=      5-min Rain = 0
KGO1 210939Z 15008KT M01/M03 A2991 RMK A01 T10061030  RH  084%=      5-min Rain = 0
KGO1 210940Z 15008KT M01/M03 A2991 RMK A01 T10061030  RH  084%=      5-min Rain = 0
KGO1 210941Z 15007KT M01/M03 A2991 RMK A01 T10061030  RH  084%=      5-min Rain = 0
KGO1 210942Z 15007KT M01/M03 A2991 RMK A01 T10071031  RH  084%=      5-min Rain = 0
KGO1 210943Z 15007KT M01/M03 A2991 RMK A01 T10071031  RH  084%=      5-min Rain = 0
KGO1 210944Z 15007KT M01/M03 A2991 RMK A01 T10071031  RH  084%=      5-min Rain = 0
KGO1 210945Z 15007KT M01/M03 A2991 RMK A01 T10071031  RH  084%=      5-min Rain = 0
KGO1 210946Z 15007KT M01/M03 A2991 RMK A01 T10071031  RH  084%=      5-min Rain = 0
KGO1 210947Z 15007KT M01/M03 A299 RMK A01 T10071030  RH  084%=      5-min Rain = 0
KGO1 210948Z 15007KT M01/M03 A299 RMK A01 T10071030  RH  084%=      5-min Rain = 0
KGO1 210949Z 15007KT M01/M03 A299 RMK A01 T10081031  RH  084%=      5-min Rain = 0
KGO1 210950Z 15006KT M01/M03 A299 RMK A01 T10081031  RH  084%=      5-min Rain = 0
KGO1 210951Z 15006KT M01/M03 A299 RMK A01 T10071030  RH  084%=      5-min Rain = 0
KGO1 210952Z 15006KT M01/M03 A299 RMK A01 T10081031  RH  084%=      5-min Rain = 0
KGO1 210953Z 15006KT M01/M03 A299 RMK A01 T10081031  RH  084%=      5-min Rain = 0
KGO1 210954Z 15006KT M01/M03 A299 RMK A01 T10081031  RH  085%=      5-min Rain = 0
KGO1 210955Z 15006KT M01/M03 A299 RMK A01 T10081031  RH  085%=      5-min Rain = 0
KGO1 210956Z 15007KT M01/M03 A299 RMK A01 T10081031  RH  085%=      5-min Rain = 0
KGO1 210957Z 15007KT M01/M03 A299 RMK A01 T10081031  RH  085%=      5-min Rain = 0
KGO1 210958Z 15007KT M01/M03 A2989 RMK A01 T10081031  RH  085%=      5-min Rain = 0
KGO1 210959Z 15007KT M01/M03 A2989 RMK A01 T10071030  RH  085%=      5-min Rain = 0
KGO1 211000Z 15007KT M01/M03 A2989 RMK A01 T10071030  RH  085%=      5-min Rain = 0
KGO1 211001Z 15007KT M01/M03 A2989 RMK A01 T10071030  RH  085%=      5-min Rain = 0
KGO1 211002Z 15007KT M01/M03 A2989 RMK A01 T10071029  RH  085%=      5-min Rain = 0
KGO1 211003Z 15006KT M01/M03 A2989 RMK A01 T10071030  RH  085%=      5-min Rain = 0
KGO1 211004Z 15006KT M01/M03 A2989 RMK A01 T10061029  RH  084%=      5-min Rain = 0
KGO1 211005Z 15006KT M01/M03 A2989 RMK A01 T10061030  RH  084%=      5-min Rain = 0
KGO1 211006Z 15007KT M01/M03 A2989 RMK A01 T10071030  RH  084%=      5-min Rain = 0
KGO1 211007Z 15007KT M01/M03 A2989 RMK A01 T10071030  RH  085%=      5-min Rain = 0
KGO1 211008Z 15007KT M01/M03 A2989 RMK A01 T10071030  RH  085%=      5-min Rain = 0
KGO1 211009Z 15007KT M01/M03 A2988 RMK A01 T10071030  RH  085%=      5-min Rain = 0
KGO1 211010Z 15007KT M01/M03 A2988 RMK A01 T10071030  RH  085%=      5-min Rain = 0
KGO1 211011Z 15007KT M01/M03 A2988 RMK A01 T10071030  RH  085%=      5-min Rain = 0
KGO1 211012Z 15008KT M01/M03 A2988 RMK A01 T10081030  RH  085%=      5-min Rain = 0
KGO1 211013Z 15007KT M01/M03 A2988 RMK A01 T10071030  RH  085%=      5-min Rain = 0
KGO1 211014Z 15006KT M01/M03 A2988 RMK A01 T10071030  RH  085%=      5-min Rain = 0
KGO1 211015Z 15006KT M01/M03 A2988 RMK A01 T10081030  RH  085%=      5-min Rain = 0
KGO1 211016Z 15006KT M01/M03 A2988 RMK A01 T10071030  RH  085%=      5-min Rain = 0
KGO1 211017Z 15006KT M01/M03 A2988 RMK A01 T10071030  RH  085%=      5-min Rain = 0
KGO1 211018Z 14006KT M01/M03 A2988 RMK A01 T10071030  RH  085%=      5-min Rain = 0
KGO1 211019Z 15007KT M01/M03 A2988 RMK A01 T10081030  RH  085%=      5-min Rain = 0
KGO1 211020Z 14006KT M01/M03 A2988 RMK A01 T10081030  RH  085%=      5-min Rain = 0
KGO1 211021Z 14006KT M01/M03 A2988 RMK A01 T10081030  RH  085%=      5-min Rain = 0
KGO1 211022Z 14006KT M01/M03 A2988 RMK A01 T10091030  RH  085%=      5-min Rain = 0
KGO1 211023Z 14005KT M01/M03 A2988 RMK A01 T10091030  RH  085%=      5-min Rain = 0
KGO1 211024Z 14005KT M01/M03 A2988 RMK A01 T10091030  RH  086%=      5-min Rain = 0
KGO1 211025Z 15006KT M01/M03 A2988 RMK A01 T10091030  RH  086%=      5-min Rain = 0
KGO1 211026Z 15006KT M01/M03 A2988 RMK A01 T10091030  RH  086%=      5-min Rain = 0
KGO1 211027Z 15006KT M01/M03 A2988 RMK A01 T10101031  RH  086%=      5-min Rain = 0
KGO1 211028Z 15006KT M01/M03 A2988 RMK A01 T10101031  RH  086%=      5-min Rain = 0
KGO1 211029Z 15006KT M01/M03 A2988 RMK A01 T10101031  RH  086%=      5-min Rain = 0
KGO1 211030Z 15007KT M01/M03 A2987 RMK A01 T10101031  RH  086%=      5-min Rain = 0
KGO1 211031Z 15007KT M01/M03 A2987 RMK A01 T10101031  RH  086%=      5-min Rain = 0
KGO1 211032Z 15007KT M01/M03 A2987 RMK A01 T10091031  RH  086%=      5-min Rain = 0
KGO1 211033Z 15007KT M01/M03 A2987 RMK A01 T10091031  RH  085%=      5-min Rain = 0
KGO1 211034Z 16008KT M01/M03 A2987 RMK A01 T10091030  RH  085%=      5-min Rain = 0
KGO1 211035Z 16008KT M01/M03 A2987 RMK A01 T10091031  RH  085%=      5-min Rain = 0
KGO1 211036Z 16008KT M01/M03 A2987 RMK A01 T10091031  RH  085%=      5-min Rain = 0
KGO1 211037Z 16008KT M01/M03 A2987 RMK A01 T10091031  RH  085%=      5-min Rain = 0
KGO1 211038Z 16008KT M01/M03 A2987 RMK A01 T10091030  RH  085%=      5-min Rain = 0
KGO1 211039Z 16008KT M01/M03 A2987 RMK A01 T10091030  RH  085%=      5-min Rain = 0
KGO1 211040Z 15008KT M01/M03 A2987 RMK A01 T10091031  RH  085%=      5-min Rain = 0
KGO1 211041Z 16009KT M01/M03 A2987 RMK A01 T10081030  RH  085%=      5-min Rain = 0
KGO1 211042Z 15008KT M01/M03 A2987 RMK A01 T10081030  RH  085%=      5-min Rain = 0
KGO1 211043Z 16008KT M01/M03 A2987 RMK A01 T10081030  RH  085%=      5-min Rain = 0
KGO1 211044Z 16008KT M01/M03 A2987 RMK A01 T10081030  RH  085%=      5-min Rain = 0
KGO1 211045Z 16008KT M01/M03 A2987 RMK A01 T10081030  RH  085%=      5-min Rain = 0
KGO1 211046Z 16007KT M01/M03 A2987 RMK A01 T10081030  RH  085%=      5-min Rain = 0
KGO1 211047Z 16006KT M01/M03 A2987 RMK A01 T10081030  RH  086%=      5-min Rain = 0
KGO1 211048Z 17006KT M01/M03 A2987 RMK A01 T10081030  RH  085%=      5-min Rain = 0
KGO1 211049Z 17006KT M01/M03 A2987 RMK A01 T10081030  RH  085%=      5-min Rain = 0
KGO1 211050Z 16007KT M01/M03 A2987 RMK A01 T10091030  RH  085%=      5-min Rain = 0
KGO1 211051Z 16007KT M01/M03 A2987 RMK A01 T10091031  RH  085%=      5-min Rain = 0
KGO1 211052Z 17007KT M01/M03 A2987 RMK A01 T10101031  RH  086%=      5-min Rain = 0
KGO1 211053Z 17007KT M01/M03 A2987 RMK A01 T10101031  RH  086%=      5-min Rain = 0
KGO1 211054Z 17007KT M01/M03 A2986 RMK A01 T10101031  RH  086%=      5-min Rain = 0
KGO1 211055Z 17007KT M01/M03 A2986 RMK A01 T10101031  RH  086%=      5-min Rain = 0
KGO1 211056Z 16007KT M01/M03 A2986 RMK A01 T10111031  RH  086%=      5-min Rain = 0
KGO1 211057Z 16008KT M01/M03 A2986 RMK A01 T10111031  RH  086%=      5-min Rain = 0
KGO1 211058Z 16008KT M01/M03 A2986 RMK A01 T10111031  RH  086%=      5-min Rain = 0
KGO1 211059Z 17008KT M01/M03 A2986 RMK A01 T10111031  RH  086%=      5-min Rain = 0
KGO1 211100Z 17007KT M01/M03 A2986 RMK A01 T10111031  RH  086%=      5-min Rain = 0
KGO1 211101Z 17008KT M01/M03 A2986 RMK A01 T10101030  RH  086%=      5-min Rain = 0
KGO1 211102Z 17008KT M01/M03 A2986 RMK A01 T10101030  RH  086%=      5-min Rain = 0
KGO1 211103Z 17008KT M01/M03 A2986 RMK A01 T10101031  RH  086%=      5-min Rain = 0
KGO1 211104Z 17009KT M01/M03 A2986 RMK A01 T10101031  RH  086%=      5-min Rain = 0
KGO1 211105Z 17009KT M01/M03 A2986 RMK A01 T10101031  RH  086%=      5-min Rain = 0
KGO1 211106Z 17009KT M01/M03 A2986 RMK A01 T10101031  RH  086%=      5-min Rain = 0
KGO1 211107Z 17009KT M01/M03 A2986 RMK A01 T10101031  RH  086%=      5-min Rain = 0
KGO1 211108Z 17010KT M01/M03 A2986 RMK A01 T10101031  RH  086%=      5-min Rain = 0
KGO1 211109Z 17009KT M01/M03 A2986 RMK A01 T10101031  RH  086%=      5-min Rain = 0
KGO1 211110Z 17009KT M01/M03 A2986 RMK A01 T10101031  RH  086%=      5-min Rain = 0
KGO1 211111Z 16009KT M01/M03 A2986 RMK A01 T10101031  RH  086%=      5-min Rain = 0
KGO1 211112Z 16009KT M01/M03 A2986 RMK A01 T10101031  RH  086%=      5-min Rain = 0
KGO1 211113Z 16009KT M01/M03 A2986 RMK A01 T10101031  RH  086%=      5-min Rain = 0
KGO1 211114Z 16009KT M01/M03 A2986 RMK A01 T10101031  RH  085%=      5-min Rain = 0
KGO1 211115Z 16008KT M01/M03 A2986 RMK A01 T10101031  RH  085%=      5-min Rain = 0
KGO1 211116Z 16009KT M01/M03 A2986 RMK A01 T10101031  RH  085%=      5-min Rain = 0
KGO1 211117Z 16008KT M01/M03 A2986 RMK A01 T10091031  RH  086%=      5-min Rain = 0
KGO1 211118Z 16008KT M01/M03 A2986 RMK A01 T10101032  RH  085%=      5-min Rain = 0
KGO1 211119Z 16008KT M01/M03 A2986 RMK A01 T10101032  RH  086%=      5-min Rain = 0
KGO1 211120Z 16007KT M01/M03 A2986 RMK A01 T10111032  RH  086%=      5-min Rain = 0
KGO1 211121Z 17007KT M01/M03 A2986 RMK A01 T10111032  RH  086%=      5-min Rain = 0
KGO1 211122Z 17008KT M01/M03 A2986 RMK A01 T10111032  RH  086%=      5-min Rain = 0
KGO1 211123Z 17007KT M01/M03 A2986 RMK A01 T10111032  RH  086%=      5-min Rain = 0
KGO1 211124Z 17007KT M01/M03 A2986 RMK A01 T10121032  RH  086%=      5-min Rain = 0
KGO1 211125Z 17007KT M01/M03 A2986 RMK A01 T10121033  RH  086%=      5-min Rain = 0
KGO1 211126Z 17008KT M01/M03 A2986 RMK A01 T10131033  RH  086%=      5-min Rain = 0
KGO1 211127Z 17008KT M01/M03 A2986 RMK A01 T10131033  RH  086%=      5-min Rain = 0
KGO1 211128Z 17008KT M01/M03 A2986 RMK A01 T10131032  RH  087%=      5-min Rain = 0
KGO1 211129Z 17007KT M01/M03 A2986 RMK A01 T10131033  RH  087%=      5-min Rain = 0
KGO1 211130Z 17008KT M01/M03 A2986 RMK A01 T10131032  RH  087%=      5-min Rain = 0
KGO1 211131Z 17008KT M01/M03 A2986 RMK A01 T10131032  RH  087%=      5-min Rain = 0
KGO1 211132Z 17008KT M01/M03 A2985 RMK A01 T10131032  RH  087%=      5-min Rain = 0
KGO1 211133Z 17008KT M01/M03 A2985 RMK A01 T10131032  RH  087%=      5-min Rain = 0
KGO1 211134Z 17007KT M01/M03 A2985 RMK A01 T10141033  RH  087%=      5-min Rain = 0
KGO1 211135Z 17007KT M01/M03 A2985 RMK A01 T10141033  RH  087%=      5-min Rain = 0
KGO1 211136Z 18007KT M01/M03 A2985 RMK A01 T10141033  RH  087%=      5-min Rain = 0
KGO1 211137Z 18007KT M02/M03 A2985 RMK A01 T10151033  RH  087%=      5-min Rain = 0
KGO1 211138Z 18007KT M02/M03 A2985 RMK A01 T10151033  RH  087%=      5-min Rain = 0
KGO1 211139Z 18007KT M02/M03 A2985 RMK A01 T10151033  RH  088%=      5-min Rain = 0
KGO1 211140Z 18006KT M02/M03 A2985 RMK A01 T10151033  RH  088%=      5-min Rain = 0
KGO1 211141Z 18006KT M02/M03 A2985 RMK A01 T10161034  RH  088%=      5-min Rain = 0
KGO1 211142Z 19006KT M02/M03 A2985 RMK A01 T10161034  RH  088%=      5-min Rain = 0
KGO1 211143Z 18006KT M02/M03 A2985 RMK A01 T10161034  RH  088%=      5-min Rain = 0
KGO1 211144Z 18006KT M02/M03 A2985 RMK A01 T10171034  RH  088%=      5-min Rain = 0
KGO1 211145Z 18006KT M02/M03 A2985 RMK A01 T10171034  RH  088%=      5-min Rain = 0
KGO1 211146Z 18006KT M02/M03 A2985 RMK A01 T10181034  RH  088%=      5-min Rain = 0
KGO1 211147Z 17007KT M02/M03 A2985 RMK A01 T10181034  RH  088%=      5-min Rain = 0
KGO1 211148Z 18007KT M02/M03 A2985 RMK A01 T10181034  RH  088%=      5-min Rain = 0
KGO1 211149Z 18007KT M02/M03 A2985 RMK A01 T10181034  RH  088%=      5-min Rain = 0
KGO1 211150Z 18007KT M02/M03 A2985 RMK A01 T10171034  RH  089%=      5-min Rain = 0
KGO1 211151Z 17007KT M02/M03 A2985 RMK A01 T10171034  RH  089%=      5-min Rain = 0
KGO1 211152Z 17008KT M02/M03 A2985 RMK A01 T10181034  RH  088%=      5-min Rain = 0
KGO1 211153Z 17008KT M02/M04 A2985 RMK A01 T10181035  RH  088%=      5-min Rain = 0
KGO1 211154Z 17008KT M02/M03 A2984 RMK A01 T10181034  RH  089%=      5-min Rain = 0
KGO1 211155Z 17008KT M02/M03 A2984 RMK A01 T10181034  RH  089%=      5-min Rain = 0
KGO1 211156Z 18008KT M02/M03 A2984 RMK A01 T10171034  RH  088%=      5-min Rain = 0
KGO1 211157Z 18008KT M02/M04 A2985 RMK A01 T10181035  RH  088%=      5-min Rain = 0
KGO1 211158Z 18008KT M02/M04 A2985 RMK A01 T10181035  RH  088%=      5-min Rain = 0
KGO1 211159Z 18008KT M02/M04 A2985 RMK A01 T10181035  RH  088%=      5-min Rain = 0
KGO1 211200Z 18008KT M02/M04 A2985 RMK A01 T10181035  RH  088%=      5-min Rain = 0
KGO1 211201Z 18008KT M02/M04 A2985 RMK A01 T10191035  RH  088%=      5-min Rain = 0
KGO1 211202Z 18008KT M02/M04 A2985 RMK A01 T10191035  RH  089%=      5-min Rain = 0
KGO1 211203Z 18008KT M02/M04 A2985 RMK A01 T10191035  RH  089%=      5-min Rain = 0
KGO1 211204Z 18008KT M02/M04 A2985 RMK A01 T10191036  RH  089%=      5-min Rain = 0
KGO1 211205Z 17008KT M02/M04 A2985 RMK A01 T10191036  RH  089%=      5-min Rain = 0
KGO1 211206Z 18008KT M02/M04 A2984 RMK A01 T10191035  RH  089%=      5-min Rain = 0
KGO1 211207Z 18008KT M02/M04 A2984 RMK A01 T10201036  RH  089%=      5-min Rain = 0
KGO1 211208Z 17009KT M02/M04 A2984 RMK A01 T10201036  RH  089%=      5-min Rain = 0
KGO1 211209Z 17009KT M02/M04 A2984 RMK A01 T10201036  RH  089%=      5-min Rain = 0
KGO1 211210Z 17009KT M02/M04 A2984 RMK A01 T10191035  RH  089%=      5-min Rain = 0
KGO1 211211Z 17009KT M02/M04 A2984 RMK A01 T10191035  RH  089%=      5-min Rain = 0
KGO1 211212Z 17009KT M02/M04 A2984 RMK A01 T10191035  RH  089%=      5-min Rain = 0
KGO1 211213Z 17009KT M02/M04 A2984 RMK A01 T10181035  RH  089%=      5-min Rain = 0
KGO1 211214Z 17008KT M02/M04 A2984 RMK A01 T10181035  RH  088%=      5-min Rain = 0
KGO1 211215Z 17008KT M02/M04 A2984 RMK A01 T10181035  RH  088%=      5-min Rain = 0
KGO1 211216Z 17007KT M02/M04 A2984 RMK A01 T10181035  RH  088%=      5-min Rain = 0
KGO1 211217Z 16006KT M02/M04 A2984 RMK A01 T10181036  RH  088%=      5-min Rain = 0
KGO1 211218Z 16005KT M02/M04 A2984 RMK A01 T10181036  RH  088%=      5-min Rain = 0
KGO1 211219Z 15005KT M02/M04 A2984 RMK A01 T10181036  RH  088%=      5-min Rain = 0
KGO1 211220Z 15006KT M02/M04 A2983 RMK A01 T10181036  RH  088%=      5-min Rain = 0
KGO1 211221Z 16006KT M02/M04 A2983 RMK A01 T10191037  RH  088%=      5-min Rain = 0
KGO1 211222Z 16006KT M02/M04 A2983 RMK A01 T10201037  RH  088%=      5-min Rain = 0
KGO1 211223Z 16006KT M02/M04 A2983 RMK A01 T10211038  RH  088%=      5-min Rain = 0
KGO1 211224Z 16006KT M02/M04 A2983 RMK A01 T10211037  RH  088%=      5-min Rain = 0
KGO1 211225Z 16005KT M02/M04 A2983 RMK A01 T10211037  RH  089%=      5-min Rain = 0
KGO1 211226Z 17005KT M02/M04 A2983 RMK A01 T10211038  RH  089%=      5-min Rain = 0
KGO1 211227Z 16004KT M02/M04 A2983 RMK A01 T10221038  RH  089%=      5-min Rain = 0
KGO1 211228Z 16004KT M02/M04 A2983 RMK A01 T10231039  RH  089%=      5-min Rain = 0
KGO1 211229Z 16004KT M02/M04 A2983 RMK A01 T10231039  RH  089%=      5-min Rain = 0
KGO1 211230Z 17003KT M02/M04 A2983 RMK A01 T10231039  RH  089%=      5-min Rain = 0
KGO1 211231Z 18003KT M02/M04 A2983 RMK A01 T10241040  RH  089%=      5-min Rain = 0
KGO1 211232Z 18003KT M02/M04 A2983 RMK A01 T10241039  RH  090%=      5-min Rain = 0
KGO1 211233Z 18003KT M02/M04 A2983 RMK A01 T10241039  RH  090%=      5-min Rain = 0
KGO1 211234Z 18004KT M02/M04 A2983 RMK A01 T10241039  RH  090%=      5-min Rain = 0
KGO1 211235Z 19004KT M02/M04 A2983 RMK A01 T10241039  RH  090%=      5-min Rain = 0
KGO1 211236Z 18004KT M03/M04 A2983 RMK A01 T10251039  RH  090%=      5-min Rain = 0
KGO1 211237Z 18004KT M03/M04 A2983 RMK A01 T10251039  RH  090%=      5-min Rain = 0
KGO1 211238Z 17004KT M03/M04 A2984 RMK A01 T10251039  RH  090%=      5-min Rain = 0
KGO1 211239Z 17004KT M03/M04 A2984 RMK A01 T10251039  RH  090%=      5-min Rain = 0
KGO1 211240Z 16004KT M03/M04 A2984 RMK A01 T10251039  RH  090%=      5-min Rain = 0
KGO1 211241Z 16004KT M03/M04 A2984 RMK A01 T10251039  RH  090%=      5-min Rain = 0
KGO1 211242Z 16004KT M03/M04 A2984 RMK A01 T10261040  RH  090%=      5-min Rain = 0
KGO1 211243Z 16004KT M03/M04 A2984 RMK A01 T10261040  RH  090%=      5-min Rain = 0
KGO1 211244Z 16004KT M03/M04 A2983 RMK A01 T10261040  RH  090%=      5-min Rain = 0
KGO1 211245Z 16005KT M03/M04 A2983 RMK A01 T10261040  RH  090%=      5-min Rain = 0
KGO1 211246Z 16004KT M03/M04 A2983 RMK A01 T10261040  RH  090%=      5-min Rain = 0
KGO1 211247Z 16004KT M03/M04 A2983 RMK A01 T10261040  RH  090%=      5-min Rain = 0
KGO1 211248Z 16004KT M03/M04 A2983 RMK A01 T10261040  RH  090%=      5-min Rain = 0
KGO1 211249Z 16004KT M03/M04 A2983 RMK A01 T10261040  RH  090%=      5-min Rain = 0
KGO1 211250Z 16003KT M03/M04 A2983 RMK A01 T10271041  RH  090%=      5-min Rain = 0
KGO1 211251Z 16003KT M03/M04 A2983 RMK A01 T10281042  RH  090%=      5-min Rain = 0
KGO1 211252Z 16003KT M03/M04 A2983 RMK A01 T10281043  RH  090%=      5-min Rain = 0
KGO1 211253Z 16004KT M03/M04 A2983 RMK A01 T10291044  RH  090%=      5-min Rain = 0
KGO1 211254Z 16004KT M03/M04 A2983 RMK A01 T10301044  RH  090%=      5-min Rain = 0
KGO1 211255Z 16004KT M03/M04 A2983 RMK A01 T10311044  RH  090%=      5-min Rain = 0
KGO1 211256Z 16003KT M03/M04 A2983 RMK A01 T10311044  RH  091%=      5-min Rain = 0
KGO1 211257Z 16003KT M03/M04 A2983 RMK A01 T10311044  RH  091%=      5-min Rain = 0
KGO1 211258Z 16004KT M03/M04 A2983 RMK A01 T10311043  RH  092%=      5-min Rain = 0
KGO1 211259Z 15004KT M03/M04 A2983 RMK A01 T10321043  RH  092%=      5-min Rain = 0
KGO1 211300Z 16003KT M03/M04 A2983 RMK A01 T10321042  RH  092%=      5-min Rain = 0
KGO1 211301Z 16002KT M03/M04 A2983 RMK A01 T10321042  RH  093%=      5-min Rain = 0
KGO1 211302Z 16002KT M03/M04 A2983 RMK A01 T10321041  RH  093%=      5-min Rain = 0
KGO1 211303Z 17001KT M03/M04 A2984 RMK A01 T10311041  RH  093%=      5-min Rain = 0
KGO1 211304Z 20000KT M03/M04 A2984 RMK A01 T10301039  RH  093%=      5-min Rain = 0
KGO1 211305Z 25000KT M03/M04 A2984 RMK A01 T10301040  RH  093%=      5-min Rain = 0
KGO1 211306Z 26001KT M03/M04 A2984 RMK A01 T10301042  RH  092%=      5-min Rain = 0
KGO1 211307Z 27001KT M03/M04 A2984 RMK A01 T10311043  RH  092%=      5-min Rain = 0
KGO1 211308Z 26001KT M03/M04 A2984 RMK A01 T10311041  RH  093%=      5-min Rain = 0
KGO1 211309Z 24001KT M03/M04 A2984 RMK A01 T10301040  RH  093%=      5-min Rain = 0
KGO1 211310Z 19001KT M03/M04 A2984 RMK A01 T10291040  RH  093%=      5-min Rain = 0
KGO1 211311Z 19002KT M03/M04 A2984 RMK A01 T10281038  RH  093%=      5-min Rain = 0
KGO1 211312Z 21001KT M03/M04 A2985 RMK A01 T10271037  RH  093%=      5-min Rain = 0
KGO1 211313Z 22001KT M03/M04 A2985 RMK A01 T10261037  RH  092%=      5-min Rain = 0
KGO1 211314Z 23001KT M03/M04 A2985 RMK A01 T10261037  RH  092%=      5-min Rain = 0
KGO1 211315Z 23001KT M03/M04 A2985 RMK A01 T10251036  RH  092%=      5-min Rain = 0
KGO1 211316Z 22002KT M02/M04 A2985 RMK A01 T10241036  RH  092%=      5-min Rain = 0
KGO1 211317Z 22002KT M02/M04 A2985 RMK A01 T10231036  RH  091%=      5-min Rain = 0
KGO1 211318Z 22002KT M02/M04 A2985 RMK A01 T10231036  RH  091%=      5-min Rain = 0
KGO1 211319Z 22002KT M02/M04 A2985 RMK A01 T10231036  RH  090%=      5-min Rain = 0
KGO1 211320Z 22002KT M02/M04 A2985 RMK A01 T10221036  RH  090%=      5-min Rain = 0
KGO1 211321Z 21001KT M02/M04 A2985 RMK A01 T10221035  RH  090%=      5-min Rain = 0
KGO1 211322Z 20001KT M02/M04 A2985 RMK A01 T10221037  RH  090%=      5-min Rain = 0
KGO1 211323Z 19001KT M02/M04 A2985 RMK A01 T10231038  RH  089%=      5-min Rain = 0
KGO1 211324Z 18001KT M02/M04 A2985 RMK A01 T10241040  RH  089%=      5-min Rain = 0
KGO1 211325Z 18000KT M03/M04 A2985 RMK A01 T10251042  RH  088%=      5-min Rain = 0
KGO1 211326Z 00000KT M03/M05 A2985 RMK A01 T10281045  RH  088%=      5-min Rain = 0
KGO1 211327Z 00000KT M03/M05 A2985 RMK A01 T10301045  RH  090%=      5-min Rain = 0
KGO1 211328Z 00000KT M03/M04 A2985 RMK A01 T10301043  RH  091%=      5-min Rain = 0
KGO1 211329Z 00000KT M03/M04 A2985 RMK A01 T10301040  RH  092%=      5-min Rain = 0
KGO1 211330Z 08000KT M03/M04 A2985 RMK A01 T10281039  RH  093%=      5-min Rain = 0
KGO1 211331Z 08001KT M03/M04 A2985 RMK A01 T10271037  RH  093%=      5-min Rain = 0
KGO1 211332Z 09001KT M03/M04 A2985 RMK A01 T10261036  RH  093%=      5-min Rain = 0
KGO1 211333Z 11001KT M03/M04 A2985 RMK A01 T10251035  RH  093%=      5-min Rain = 0
KGO1 211334Z 11002KT M02/M04 A2985 RMK A01 T10241035  RH  092%=      5-min Rain = 0
KGO1 211335Z 11002KT M02/M04 A2985 RMK A01 T10231035  RH  092%=      5-min Rain = 0
KGO1 211336Z 12002KT M02/M03 A2984 RMK A01 T10221034  RH  092%=      5-min Rain = 0
KGO1 211337Z 13002KT M02/M03 A2984 RMK A01 T10211034  RH  091%=      5-min Rain = 0
KGO1 211338Z 13003KT M02/M03 A2984 RMK A01 T10211034  RH  091%=      5-min Rain = 0
KGO1 211339Z 14004KT M02/M03 A2984 RMK A01 T10211034  RH  090%=      5-min Rain = 0
KGO1 211340Z 14004KT M02/M04 A2984 RMK A01 T10211035  RH  090%=      5-min Rain = 0
KGO1 211341Z 14004KT M02/M04 A2984 RMK A01 T10201035  RH  090%=      5-min Rain = 0
KGO1 211342Z 14005KT M02/M04 A2984 RMK A01 T10211036  RH  089%=      5-min Rain = 0
KGO1 211343Z 14005KT M02/M04 A2984 RMK A01 T10221038  RH  089%=      5-min Rain = 0
KGO1 211344Z 14004KT M02/M04 A2984 RMK A01 T10241040  RH  089%=      5-min Rain = 0
KGO1 211345Z 14004KT M03/M04 A2984 RMK A01 T10251041  RH  089%=      5-min Rain = 0
KGO1 211346Z 13004KT M03/M04 A2984 RMK A01 T10261041  RH  089%=      5-min Rain = 0
KGO1 211347Z 13004KT M03/M04 A2984 RMK A01 T10271042  RH  090%=      5-min Rain = 0
KGO1 211348Z 13004KT M03/M04 A2984 RMK A01 T10281042  RH  090%=      5-min Rain = 0
KGO1 211349Z 13003KT M03/M04 A2984 RMK A01 T10291042  RH  091%=      5-min Rain = 0
KGO1 211350Z 13004KT M03/M04 A2984 RMK A01 T10291041  RH  091%=      5-min Rain = 0
KGO1 211351Z 13003KT M03/M04 A2984 RMK A01 T10281040  RH  092%=      5-min Rain = 0
KGO1 211352Z 13003KT M03/M04 A2984 RMK A01 T10291040  RH  092%=      5-min Rain = 0
KGO1 211353Z 13004KT M03/M04 A2983 RMK A01 T10281039  RH  092%=      5-min Rain = 0
KGO1 211354Z 14003KT M03/M04 A2983 RMK A01 T10271038  RH  092%=      5-min Rain = 0
KGO1 211355Z 14003KT M03/M04 A2984 RMK A01 T10271038  RH  092%=      5-min Rain = 0
KGO1 211356Z 14003KT M03/M04 A2984 RMK A01 T10271038  RH  092%=      5-min Rain = 0
KGO1 211357Z 15002KT M03/M04 A2984 RMK A01 T10271038  RH  092%=      5-min Rain = 0
KGO1 211358Z 15002KT M03/M04 A2984 RMK A01 T10271039  RH  092%=      5-min Rain = 0
KGO1 211359Z 15002KT M03/M04 A2983 RMK A01 T10271039  RH  092%=      5-min Rain = 0
KGO1 211400Z 15002KT M03/M04 A2983 RMK A01 T10271038  RH  092%=      5-min Rain = 0
KGO1 211401Z 17002KT M03/M04 A2983 RMK A01 T10271038  RH  092%=      5-min Rain = 0
KGO1 211402Z 17002KT M03/M04 A2983 RMK A01 T10281039  RH  092%=      5-min Rain = 0
KGO1 211403Z 16002KT M03/M04 A2983 RMK A01 T10281039  RH  092%=      5-min Rain = 0
KGO1 211404Z 16002KT M03/M04 A2983 RMK A01 T10281038  RH  093%=      5-min Rain = 0
KGO1 211405Z 16002KT M03/M04 A2983 RMK A01 T10281038  RH  093%=      5-min Rain = 0
KGO1 211406Z 16002KT M03/M04 A2983 RMK A01 T10281038  RH  093%=      5-min Rain = 0
KGO1 211407Z 16002KT M03/M04 A2983 RMK A01 T10281038  RH  093%=      5-min Rain = 0
KGO1 211408Z 16002KT M03/M04 A2983 RMK A01 T10281038  RH  093%=      5-min Rain = 0
KGO1 211409Z 16001KT M03/M04 A2983 RMK A01 T10291039  RH  093%=      5-min Rain = 0
KGO1 211410Z 16001KT M03/M04 A2983 RMK A01 T10311043  RH  092%=      5-min Rain = 0
KGO1 211411Z 16001KT M03/M05 A2983 RMK A01 T10321045  RH  091%=      5-min Rain = 0
KGO1 211412Z 16001KT M03/M05 A2983 RMK A01 T10331045  RH  092%=      5-min Rain = 0
KGO1 211413Z 17002KT M03/M04 A2983 RMK A01 T10331044  RH  092%=      5-min Rain = 0
KGO1 211414Z 18002KT M03/M04 A2983 RMK A01 T10341043  RH  093%=      5-min Rain = 0
KGO1 211415Z 18002KT M03/M04 A2983 RMK A01 T10331042  RH  094%=      5-min Rain = 0
KGO1 211416Z 19002KT M03/M04 A2983 RMK A01 T10321040  RH  094%=      5-min Rain = 0
KGO1 211417Z 19002KT M03/M04 A2982 RMK A01 T10321040  RH  094%=      5-min Rain = 0
KGO1 211418Z 19002KT M03/M04 A2982 RMK A01 T10311039  RH  094%=      5-min Rain = 0
KGO1 211419Z 18002KT M03/M04 A2982 RMK A01 T10311039  RH  094%=      5-min Rain = 0
KGO1 211420Z 18003KT M03/M04 A2982 RMK A01 T10301039  RH  094%=      5-min Rain = 0
KGO1 211421Z 18002KT M03/M04 A2982 RMK A01 T10291038  RH  094%=      5-min Rain = 0
KGO1 211422Z 18002KT M03/M04 A2982 RMK A01 T10281037  RH  094%=      5-min Rain = 0
KGO1 211423Z 18002KT M03/M03 A2982 RMK A01 T10261034  RH  094%=      5-min Rain = 0
KGO1 211424Z 18003KT M03/M03 A2982 RMK A01 T10251033  RH  094%=      5-min Rain = 0
KGO1 211425Z 18003KT M02/M03 A2982 RMK A01 T10241033  RH  094%=      5-min Rain = 0
KGO1 211426Z 18003KT M02/M03 A2982 RMK A01 T10241034  RH  092%=      5-min Rain = 0
KGO1 211427Z 17003KT M03/M04 A2982 RMK A01 T10261039  RH  091%=      5-min Rain = 0
KGO1 211428Z 17003KT M03/M04 A2982 RMK A01 T10271041  RH  090%=      5-min Rain = 0
KGO1 211429Z 17002KT M03/M04 A2982 RMK A01 T10281041  RH  091%=      5-min Rain = 0
KGO1 211430Z 17002KT M03/M04 A2982 RMK A01 T10281040  RH  091%=      5-min Rain = 0
KGO1 211431Z 17002KT M03/M04 A2982 RMK A01 T10271039  RH  092%=      5-min Rain = 0
KGO1 211432Z 17002KT M03/M04 A2982 RMK A01 T10261037  RH  092%=      5-min Rain = 0
KGO1 211433Z 17002KT M03/M04 A2981 RMK A01 T10251036  RH  092%=      5-min Rain = 0
KGO1 211434Z 16002KT M02/M04 A2981 RMK A01 T10241035  RH  092%=      5-min Rain = 0
KGO1 211435Z 16002KT M02/M04 A2981 RMK A01 T10241035  RH  092%=      5-min Rain = 0
KGO1 211436Z 16002KT M02/M04 A2981 RMK A01 T10231036  RH  091%=      5-min Rain = 0
KGO1 211437Z 17002KT M02/M04 A2981 RMK A01 T10231036  RH  091%=      5-min Rain = 0
KGO1 211438Z 16002KT M02/M04 A2981 RMK A01 T10231036  RH  091%=      5-min Rain = 0
KGO1 211439Z 16002KT M02/M04 A2981 RMK A01 T10231036  RH  090%=      5-min Rain = 0
KGO1 211440Z 16001KT M02/M04 A2981 RMK A01 T10231036  RH  091%=      5-min Rain = 0
KGO1 211441Z 17001KT M02/M04 A2981 RMK A01 T10221036  RH  091%=      5-min Rain = 0
KGO1 211442Z 18001KT M02/M04 A2981 RMK A01 T10221035  RH  091%=      5-min Rain = 0
KGO1 211443Z 19001KT M02/M04 A2982 RMK A01 T10211035  RH  091%=      5-min Rain = 0
KGO1 211444Z 19001KT M02/M03 A2982 RMK A01 T10211034  RH  090%=      5-min Rain = 0
KGO1 211445Z 19001KT M02/M03 A2982 RMK A01 T10201034  RH  090%=      5-min Rain = 0
KGO1 211446Z 19001KT M02/M03 A2982 RMK A01 T10201034  RH  090%=      5-min Rain = 0
KGO1 211447Z 20000KT M02/M03 A2982 RMK A01 T10201034  RH  090%=      5-min Rain = 0
KGO1 211448Z 29000KT M02/M03 A2982 RMK A01 T10191034  RH  089%=      5-min Rain = 0
KGO1 211449Z 30001KT M02/M03 A2982 RMK A01 T10191034  RH  090%=      5-min Rain = 0
KGO1 211450Z 33002KT M02/M03 A2982 RMK A01 T10191032  RH  091%=      5-min Rain = 0
KGO1 211451Z 33002KT M02/M03 A2982 RMK A01 T10191031  RH  092%=      5-min Rain = 0
KGO1 211452Z 34002KT M02/M03 A2982 RMK A01 T10191031  RH  092%=      5-min Rain = 0
KGO1 211453Z 35002KT M02/M03 A2982 RMK A01 T10191030  RH  092%=      5-min Rain = 0
KGO1 211454Z 35001KT M02/M03 A2982 RMK A01 T10191031  RH  092%=      5-min Rain = 0
KGO1 211455Z 35000KT M02/M03 A2982 RMK A01 T10191030  RH  092%=      5-min Rain = 0
KGO1 211456Z 00000KT M02/M03 A2982 RMK A01 T10181030  RH  092%=      5-min Rain = 0
KGO1 211457Z 00000KT M02/M03 A2982 RMK A01 T10171029  RH  092%=      5-min Rain = 0
KGO1 211458Z 00000KT M02/M03 A2982 RMK A01 T10171029  RH  092%=      5-min Rain = 0
KGO1 211459Z 00000KT M02/M03 A2982 RMK A01 T10161029  RH  091%=      5-min Rain = 0
KGO1 211500Z 31001KT M02/M03 A2982 RMK A01 T10161029  RH  091%=      5-min Rain = 0
KGO1 211501Z 30001KT M02/M03 A2982 RMK A01 T10161029  RH  091%=      5-min Rain = 0
KGO1 211502Z 30001KT M02/M03 A2982 RMK A01 T10151029  RH  091%=      5-min Rain = 0
KGO1 211503Z 29000KT M02/M03 A2982 RMK A01 T10151029  RH  091%=      5-min Rain = 0
KGO1 211504Z 00000KT M02/M03 A2982 RMK A01 T10151028  RH  091%=      5-min Rain = 0
KGO1 211505Z 00000KT M02/M03 A2982 RMK A01 T10151028  RH  091%=      5-min Rain = 0
KGO1 211506Z 00000KT M01/M03 A2982 RMK A01 T10141027  RH  091%=      5-min Rain = 0
KGO1 211507Z 19000KT M01/M03 A2982 RMK A01 T10131027  RH  090%=      5-min Rain = 0
KGO1 211508Z 19002KT M01/M03 A2982 RMK A01 T10121026  RH  090%=      5-min Rain = 0
KGO1 211509Z 17002KT M01/M03 A2982 RMK A01 T10111027  RH  089%=      5-min Rain = 0
KGO1 211510Z 18003KT M01/M03 A2982 RMK A01 T10111027  RH  089%=      5-min Rain = 0
KGO1 211511Z 17003KT M01/M03 A2982 RMK A01 T10101026  RH  089%=      5-min Rain = 0
KGO1 211512Z 17004KT M01/M03 A2982 RMK A01 T10091026  RH  089%=      5-min Rain = 0
KGO1 211513Z 16005KT M01/M03 A2981 RMK A01 T10081025  RH  088%=      5-min Rain = 0
KGO1 211514Z 15005KT M01/M03 A2981 RMK A01 T10071025  RH  088%=      5-min Rain = 0
KGO1 211515Z 15005KT M01/M03 A2981 RMK A01 T10061026  RH  087%=      5-min Rain = 0
KGO1 211516Z 15005KT M01/M03 A2981 RMK A01 T10051025  RH  086%=      5-min Rain = 0
KGO1 211517Z 14004KT M00/M03 A2981 RMK A01 T10041025  RH  086%=      5-min Rain = 0
KGO1 211518Z 14003KT M00/M02 A2981 RMK A01 T10021024  RH  085%=      5-min Rain = 0
KGO1 211519Z 14003KT M00/M02 A2981 RMK A01 T10011023  RH  085%=      5-min Rain = 0
KGO1 211520Z 13003KT 00/02 A2981 RMK A01 T00-00-23  RH  085%=      5-min Rain = 0
KGO1 211521Z 14003KT 00/02 A2981 RMK A01 T00-00-24  RH  084%=      5-min Rain = 0
KGO1 211522Z 13003KT 00/03 A2981 RMK A01 T00-00-25  RH  084%=      5-min Rain = 0
KGO1 211523Z 13003KT M00/M02 A2981 RMK A01 T10011024  RH  084%=      5-min Rain = 0
KGO1 211524Z 14003KT M00/M02 A2981 RMK A01 T10011024  RH  085%=      5-min Rain = 0
KGO1 211525Z 14003KT M00/M02 A2981 RMK A01 T10011024  RH  084%=      5-min Rain = 0
KGO1 211526Z 14003KT M00/M02 A2981 RMK A01 T10011023  RH  085%=      5-min Rain = 0
KGO1 211527Z 14004KT 00/M02 A2981 RMK A01 T00011022  RH  085%=      5-min Rain = 0
KGO1 211528Z 15003KT 00/M02 A2981 RMK A01 T00011021  RH  085%=      5-min Rain = 0
KGO1 211529Z 15003KT 00/M02 A2981 RMK A01 T00031018  RH  085%=      5-min Rain = 0
KGO1 211530Z 15003KT 01/M02 A2981 RMK A01 T00051017  RH  085%=      5-min Rain = 0
KGO1 211531Z 15003KT 01/M02 A2981 RMK A01 T00051019  RH  083%=      5-min Rain = 0
KGO1 211532Z 15003KT 01/M02 A2981 RMK A01 T00061019  RH  083%=      5-min Rain = 0
KGO1 211533Z 17003KT 01/M02 A2981 RMK A01 T00061019  RH  083%=      5-min Rain = 0
KGO1 211534Z 17004KT 01/M02 A2981 RMK A01 T00071020  RH  082%=      5-min Rain = 0
KGO1 211535Z 17004KT 01/M02 A298 RMK A01 T00081020  RH  082%=      5-min Rain = 0
KGO1 211536Z 17005KT 01/M02 A298 RMK A01 T00091019  RH  081%=      5-min Rain = 0
KGO1 211537Z 17005KT 01/M02 A298 RMK A01 T00101021  RH  080%=      5-min Rain = 0
KGO1 211538Z 17005KT 01/M02 A298 RMK A01 T00121019  RH  079%=      5-min Rain = 0
KGO1 211539Z 18005KT 01/M02 A298 RMK A01 T00141021  RH  078%=      5-min Rain = 0
KGO1 211540Z 17005KT 02/M02 A298 RMK A01 T00151021  RH  077%=      5-min Rain = 0
KGO1 211541Z 18004KT 02/M02 A298 RMK A01 T00161021  RH  076%=      5-min Rain = 0
KGO1 211542Z 19004KT 02/M02 A298 RMK A01 T00151022  RH  076%=      5-min Rain = 0
KGO1 211543Z 18005KT 02/M02 A298 RMK A01 T00161021  RH  076%=      5-min Rain = 0
KGO1 211544Z 18005KT 02/M02 A298 RMK A01 T00171021  RH  076%=      5-min Rain = 0
KGO1 211545Z 18005KT 02/M02 A298 RMK A01 T00171021  RH  076%=      5-min Rain = 0
KGO1 211546Z 18005KT 02/M02 A298 RMK A01 T00171021  RH  076%=      5-min Rain = 0
KGO1 211547Z 19005KT 02/M02 A298 RMK A01 T00171022  RH  075%=      5-min Rain = 0
KGO1 211548Z 19005KT 02/M02 A298 RMK A01 T00161023  RH  075%=      5-min Rain = 0
KGO1 211549Z 19004KT 02/M02 A298 RMK A01 T00161021  RH  076%=      5-min Rain = 0
KGO1 211550Z 18004KT 02/M02 A298 RMK A01 T00171020  RH  077%=      5-min Rain = 0
KGO1 211551Z 18004KT 02/M02 A298 RMK A01 T00181018  RH  077%=      5-min Rain = 0
KGO1 211552Z 18005KT 02/M02 A298 RMK A01 T00191018  RH  076%=      5-min Rain = 0
KGO1 211553Z 17005KT 02/M02 A298 RMK A01 T00201020  RH  075%=      5-min Rain = 0
KGO1 211554Z 18005KT 02/M02 A298 RMK A01 T00201022  RH  073%=      5-min Rain = 0
KGO1 211555Z 18004KT 02/M02 A298 RMK A01 T00201024  RH  073%=      5-min Rain = 0
KGO1 211556Z 17004KT 02/M02 A298 RMK A01 T00201024  RH  073%=      5-min Rain = 0
KGO1 211557Z 16005KT 02/M02 A298 RMK A01 T00201023  RH  073%=      5-min Rain = 0
KGO1 211558Z 16004KT 02/M02 A298 RMK A01 T00211022  RH  073%=      5-min Rain = 0
KGO1 211559Z 16004KT 02/M02 A298 RMK A01 T00221020  RH  073%=      5-min Rain = 0
KGO1 211600Z 16003KT 03/M02 A298 RMK A01 T00251017  RH  074%=      5-min Rain = 0
KGO1 211601Z 16004KT 03/M02 A298 RMK A01 T00271017  RH  073%=      5-min Rain = 0
KGO1 211602Z 16003KT 03/M02 A298 RMK A01 T00281021  RH  070%=      5-min Rain = 0
KGO1 211603Z 16003KT 03/M02 A298 RMK A01 T00281022  RH  069%=      5-min Rain = 0
KGO1 211604Z 16003KT 03/M02 A298 RMK A01 T00281021  RH  070%=      5-min Rain = 0
KGO1 211605Z 16004KT 03/M02 A298 RMK A01 T00291021  RH  070%=      5-min Rain = 0
KGO1 211606Z 16003KT 03/M02 A298 RMK A01 T00301022  RH  069%=      5-min Rain = 0
KGO1 211607Z 16003KT 03/M02 A298 RMK A01 T00311021  RH  069%=      5-min Rain = 0
KGO1 211608Z 15004KT 03/M02 A298 RMK A01 T00321021  RH  068%=      5-min Rain = 0
KGO1 211609Z 15003KT 03/M02 A298 RMK A01 T00331021  RH  067%=      5-min Rain = 0
KGO1 211610Z 16003KT 03/M02 A298 RMK A01 T00341022  RH  067%=      5-min Rain = 0
KGO1 211611Z 15003KT 04/M02 A298 RMK A01 T00351021  RH  067%=      5-min Rain = 0
KGO1 211612Z 14004KT 04/M02 A2979 RMK A01 T00361021  RH  066%=      5-min Rain = 0
KGO1 211613Z 15004KT 04/M02 A2979 RMK A01 T00371019  RH  067%=      5-min Rain = 0
KGO1 211614Z 14004KT 04/M02 A2979 RMK A01 T00401017  RH  067%=      5-min Rain = 0
KGO1 211615Z 14005KT 04/M02 A2979 RMK A01 T00421019  RH  064%=      5-min Rain = 0
KGO1 211616Z 15005KT 04/M02 A2979 RMK A01 T00421022  RH  063%=      5-min Rain = 0
KGO1 211617Z 15005KT 04/M02 A2979 RMK A01 T00421023  RH  062%=      5-min Rain = 0
KGO1 211618Z 14004KT 04/M02 A2979 RMK A01 T00431016  RH  065%=      5-min Rain = 0
KGO1 211619Z 15005KT 04/M02 A2979 RMK A01 T00441015  RH  065%=      5-min Rain = 0
KGO1 211620Z 14005KT 04/M02 A2979 RMK A01 T00441016  RH  065%=      5-min Rain = 0
KGO1 211621Z 16005KT 04/M02 A2979 RMK A01 T00441016  RH  065%=      5-min Rain = 0
KGO1 211622Z 15005KT 05/M02 A2979 RMK A01 T00451016  RH  064%=      5-min Rain = 0
KGO1 211623Z 14005KT 05/M01 A2979 RMK A01 T00491011  RH  065%=      5-min Rain = 0
KGO1 211624Z 14006KT 05/M01 A2979 RMK A01 T00501011  RH  065%=      5-min Rain = 0
KGO1 211625Z 14005KT 05/M01 A2979 RMK A01 T00501010  RH  065%=      5-min Rain = 0
KGO1 211626Z 14006KT 05/M01 A2979 RMK A01 T00521009  RH  065%=      5-min Rain = 0
KGO1 211627Z 14007KT 05/M01 A2979 RMK A01 T00521011  RH  064%=      5-min Rain = 0
KGO1 211628Z 14007KT 05/M01 A2979 RMK A01 T00511014  RH  063%=      5-min Rain = 0
KGO1 211629Z 14006KT 05/M01 A2979 RMK A01 T00501014  RH  063%=      5-min Rain = 0
KGO1 211630Z 14006KT 05/M01 A2979 RMK A01 T00491014  RH  063%=      5-min Rain = 0
KGO1 211631Z 14006KT 05/M01 A2979 RMK A01 T00491014  RH  064%=      5-min Rain = 0
KGO1 211632Z 15005KT 05/M02 A2979 RMK A01 T00511015  RH  063%=      5-min Rain = 0
KGO1 211633Z 15005KT 05/M01 A2979 RMK A01 T00531013  RH  062%=      5-min Rain = 0
KGO1 211634Z 15004KT 06/M01 A2979 RMK A01 T00551014  RH  061%=      5-min Rain = 0
KGO1 211635Z 15004KT 06/M01 A2979 RMK A01 T00561013  RH  061%=      5-min Rain = 0
KGO1 211636Z 16003KT 06/M01 A2979 RMK A01 T00571013  RH  060%=      5-min Rain = 0
KGO1 211637Z 16005KT 06/M01 A2979 RMK A01 T00581011  RH  061%=      5-min Rain = 0
KGO1 211638Z 17006KT 06/M02 A2979 RMK A01 T00611016  RH  058%=      5-min Rain = 0
KGO1 211639Z 17006KT 06/M02 A2979 RMK A01 T00641020  RH  055%=      5-min Rain = 0
KGO1 211640Z 16006KT 07/M02 A2979 RMK A01 T00651023  RH  054%=      5-min Rain = 0
KGO1 211641Z 16005KT 06/M02 A2979 RMK A01 T00641020  RH  055%=      5-min Rain = 0
KGO1 211642Z 15005KT 07/M02 A2979 RMK A01 T00651021  RH  054%=      5-min Rain = 0
KGO1 211643Z 16006KT 07/M02 A2979 RMK A01 T00661019  RH  055%=      5-min Rain = 0
KGO1 211644Z 16005KT 07/M02 A2979 RMK A01 T00681017  RH  055%=      5-min Rain = 0
KGO1 211645Z 15004KT 07/M02 A2979 RMK A01 T00701017  RH  054%=      5-min Rain = 0
KGO1 211646Z 15004KT 07/M01 A2979 RMK A01 T00721014  RH  054%=      5-min Rain = 0
KGO1 211647Z 14004KT 08/M02 A2979 RMK A01 T00751016  RH  052%=      5-min Rain = 0
KGO1 211648Z 13004KT 08/M02 A2979 RMK A01 T00761019  RH  051%=      5-min Rain = 0
KGO1 211649Z 14005KT 08/M02 A2979 RMK A01 T00771017  RH  051%=      5-min Rain = 0
KGO1 211650Z 15005KT 08/M02 A2979 RMK A01 T00771020  RH  050%=      5-min Rain = 0
KGO1 211651Z 15004KT 08/M02 A2979 RMK A01 T00771021  RH  050%=      5-min Rain = 0
KGO1 211652Z 15005KT 08/M02 A2979 RMK A01 T00771022  RH  050%=      5-min Rain = 0
KGO1 211653Z 15004KT 08/M02 A2979 RMK A01 T00781022  RH  049%=      5-min Rain = 0
KGO1 211654Z 14005KT 08/M02 A2979 RMK A01 T00771021  RH  050%=      5-min Rain = 0
KGO1 211655Z 15004KT 08/M02 A2979 RMK A01 T00781020  RH  050%=      5-min Rain = 0
KGO1 211656Z 14004KT 08/M02 A2979 RMK A01 T00791020  RH  050%=      5-min Rain = 0
KGO1 211657Z 15004KT 08/M02 A2979 RMK A01 T00801020  RH  049%=      5-min Rain = 0
KGO1 211658Z 15004KT 08/M02 A2979 RMK A01 T00811020  RH  049%=      5-min Rain = 0
KGO1 211659Z 16004KT 08/M02 A2979 RMK A01 T00821018  RH  049%=      5-min Rain = 0
KGO1 211700Z 16004KT 08/M02 A2979 RMK A01 T00831017  RH  049%=      5-min Rain = 0
KGO1 211701Z 17003KT 08/M02 A2979 RMK A01 T00831021  RH  048%=      5-min Rain = 0
KGO1 211702Z 18002KT 08/M02 A2979 RMK A01 T00831020  RH  048%=      5-min Rain = 0
KGO1 211703Z 16002KT 08/M02 A298 RMK A01 T00831022  RH  048%=      5-min Rain = 0
KGO1 211704Z 15003KT 09/M02 A2979 RMK A01 T00851019  RH  048%=      5-min Rain = 0
KGO1 211705Z 17004KT 09/M02 A2979 RMK A01 T00861021  RH  047%=      5-min Rain = 0
KGO1 211706Z 17005KT 09/M02 A2979 RMK A01 T00901017  RH  047%=      5-min Rain = 0
KGO1 211707Z 16006KT 09/M02 A2979 RMK A01 T00911018  RH  046%=      5-min Rain = 0
KGO1 211708Z 17005KT 09/M02 A2979 RMK A01 T00911016  RH  047%=      5-min Rain = 0
KGO1 211709Z 16005KT 09/M02 A2979 RMK A01 T00921016  RH  047%=      5-min Rain = 0
KGO1 211710Z 16005KT 09/M01 A2979 RMK A01 T00931014  RH  047%=      5-min Rain = 0
KGO1 211711Z 16006KT 10/M01 A2979 RMK A01 T00951014  RH  047%=      5-min Rain = 0
KGO1 211712Z 16005KT 10/M02 A2979 RMK A01 T00961017  RH  045%=      5-min Rain = 0
KGO1 211713Z 16006KT 10/M02 A2979 RMK A01 T00971015  RH  045%=      5-min Rain = 0
KGO1 211714Z 17006KT 10/M01 A2979 RMK A01 T00991014  RH  045%=      5-min Rain = 0
KGO1 211715Z 17007KT 10/M02 A2979 RMK A01 T01021018  RH  043%=      5-min Rain = 0
KGO1 211716Z 18006KT 11/M02 A2979 RMK A01 T01061020  RH  041%=      5-min Rain = 0
KGO1 211717Z 17008KT 11/M02 A2979 RMK A01 T01091023  RH  040%=      5-min Rain = 0
KGO1 211718Z 17007KT 11/M02 A2979 RMK A01 T01101019  RH  040%=      5-min Rain = 0
KGO1 211719Z 18007KT 11/M02 A2979 RMK A01 T01101017  RH  041%=      5-min Rain = 0
KGO1 211720Z 18006KT 11/M02 A2979 RMK A01 T01101020  RH  040%=      5-min Rain = 0
KGO1 211721Z 19005KT 11/M02 A2979 RMK A01 T01091020  RH  040%=      5-min Rain = 0
KGO1 211722Z 21008KT 11/M02 A2979 RMK A01 T01101022  RH  040%=      5-min Rain = 0
KGO1 211723Z 20009KT 12/M03 A2979 RMK A01 T01161025  RH  037%=      5-min Rain = 0
KGO1 211724Z 19008KT 12/M02 A2979 RMK A01 T01201024  RH  037%=      5-min Rain = 0
KGO1 211725Z 19007KT 12/M02 A2979 RMK A01 T01211023  RH  037%=      5-min Rain = 0
KGO1 211726Z 21012KT 12/M02 A2979 RMK A01 T01231022  RH  036%=      5-min Rain = 0
KGO1 211727Z 21018KT 13/M03 A2978 RMK A01 T01281034  RH  032%=      5-min Rain = 0
KGO1 211728Z 20018KT 13/M04 A2978 RMK A01 T01311038  RH  031%=      5-min Rain = 0
KGO1 211729Z 20018KT 13/M04 A2978 RMK A01 T01331035  RH  031%=      5-min Rain = 0
KGO1 211730Z 20019KT 14/M04 A2978 RMK A01 T01351037  RH  030%=      5-min Rain = 0
KGO1 211731Z 21018KT 14/M04 A2978 RMK A01 T01351039  RH  030%=      5-min Rain = 0
KGO1 211732Z 21016G21KT 13/M04 A2978 RMK A01 T01331040  RH  030%=      5-min Rain = 0
KGO1 211733Z 21016KT 13/M04 A2978 RMK A01 T01331039  RH  030%=      5-min Rain = 0
KGO1 211734Z 20016KT 13/M04 A2978 RMK A01 T01341042  RH  029%=      5-min Rain = 0
KGO1 211735Z 20014G20KT 13/M04 A2978 RMK A01 T01341039  RH  030%=      5-min Rain = 0
KGO1 211736Z 21017KT 14/M04 A2978 RMK A01 T01361039  RH  029%=      5-min Rain = 0
KGO1 211737Z 20016KT 14/M04 A2978 RMK A01 T01361040  RH  029%=      5-min Rain = 0
KGO1 211738Z 20016KT 14/M04 A2978 RMK A01 T01381038  RH  029%=      5-min Rain = 0
KGO1 211739Z 21015KT 14/M04 A2978 RMK A01 T01401038  RH  029%=      5-min Rain = 0
KGO1 211740Z 20015KT 14/M04 A2978 RMK A01 T01411038  RH  029%=      5-min Rain = 0
KGO1 211741Z 20016KT 14/M04 A2978 RMK A01 T01421037  RH  029%=      5-min Rain = 0
KGO1 211742Z 20016KT 14/M04 A2978 RMK A01 T01431036  RH  029%=      5-min Rain = 0
KGO1 211743Z 20015KT 14/M04 A2978 RMK A01 T01431039  RH  028%=      5-min Rain = 0
KGO1 211744Z 20014KT 14/M04 A2978 RMK A01 T01431039  RH  028%=      5-min Rain = 0
KGO1 211745Z 20015KT 14/M04 A2978 RMK A01 T01421039  RH  028%=      5-min Rain = 0
KGO1 211746Z 20013KT 14/M04 A2978 RMK A01 T01421038  RH  028%=      5-min Rain = 0
KGO1 211747Z 20013KT 14/M04 A2978 RMK A01 T01441037  RH  028%=      5-min Rain = 0
KGO1 211748Z 20015KT 15/M04 A2978 RMK A01 T01461036  RH  028%=      5-min Rain = 0
KGO1 211749Z 20015KT 15/M04 A2978 RMK A01 T01471038  RH  028%=      5-min Rain = 0
KGO1 211750Z 20015KT 15/M04 A2978 RMK A01 T01451039  RH  028%=      5-min Rain = 0
KGO1 211751Z 20014KT 15/M04 A2978 RMK A01 T01451040  RH  028%=      5-min Rain = 0
KGO1 211752Z 20014KT 15/M04 A2978 RMK A01 T01461039  RH  028%=      5-min Rain = 0
KGO1 211753Z 20016G22KT 15/M03 A2977 RMK A01 T01481034  RH  028%=      5-min Rain = 0
KGO1 211754Z 20017KT 15/M04 A2977 RMK A01 T01491039  RH  027%=      5-min Rain = 0
KGO1 211755Z 21017KT 15/M04 A2978 RMK A01 T01481036  RH  028%=      5-min Rain = 0
KGO1 211756Z 20013KT 15/M03 A2978 RMK A01 T01491034  RH  028%=      5-min Rain = 0
KGO1 211757Z 20013KT 15/M03 A2978 RMK A01 T01531029  RH  028%=      5-min Rain = 0
KGO1 211758Z 20013KT 16/M03 A2978 RMK A01 T01581027  RH  028%=      5-min Rain = 0
KGO1 211759Z 19013KT 16/M03 A2977 RMK A01 T01591031  RH  027%=      5-min Rain = 0
KGO1 211800Z 20014KT 16/M03 A2977 RMK A01 T01591029  RH  027%=      5-min Rain = 0
KGO1 211801Z 20014KT 16/M04 A2977 RMK A01 T01571035  RH  027%=      5-min Rain = 0
KGO1 211802Z 19016KT 16/M03 A2977 RMK A01 T01551034  RH  027%=      5-min Rain = 0
KGO1 211803Z 20016KT 15/M04 A2977 RMK A01 T01541035  RH  027%=      5-min Rain = 0
KGO1 211804Z 19016KT 15/M04 A2977 RMK A01 T01531036  RH  027%=      5-min Rain = 0
KGO1 211805Z 20015KT 15/M04 A2977 RMK A01 T01521036  RH  027%=      5-min Rain = 0
KGO1 211806Z 20015KT 15/M04 A2977 RMK A01 T01521035  RH  027%=      5-min Rain = 0
KGO1 211807Z 20013KT 15/M03 A2977 RMK A01 T01521034  RH  027%=      5-min Rain = 0
KGO1 211808Z 19013KT 15/M04 A2977 RMK A01 T01531036  RH  027%=      5-min Rain = 0
KGO1 211809Z 20014KT 15/M03 A2977 RMK A01 T01541034  RH  027%=      5-min Rain = 0
KGO1 211810Z 19017KT 16/M03 A2977 RMK A01 T01551034  RH  027%=      5-min Rain = 0
KGO1 211811Z 19015KT 16/M04 A2977 RMK A01 T01551036  RH  027%=      5-min Rain = 0
KGO1 211812Z 21014KT 15/M04 A2977 RMK A01 T01541036  RH  027%=      5-min Rain = 0
KGO1 211813Z 20017KT 15/M04 A2977 RMK A01 T01541036  RH  027%=      5-min Rain = 0
KGO1 211814Z 21016KT 16/M04 A2977 RMK A01 T01551038  RH  026%=      5-min Rain = 0
KGO1 211815Z 21016KT 16/M03 A2977 RMK A01 T01561033  RH  027%=      5-min Rain = 0
KGO1 211816Z 20015KT 16/M04 A2976 RMK A01 T01571036  RH  026%=      5-min Rain = 0
KGO1 211817Z 20015KT 16/M04 A2976 RMK A01 T01571035  RH  027%=      5-min Rain = 0
KGO1 211818Z 19017KT 16/M04 A2976 RMK A01 T01571037  RH  026%=      5-min Rain = 0
KGO1 211819Z 20017KT 16/M04 A2976 RMK A01 T01561036  RH  026%=      5-min Rain = 0
KGO1 211820Z 20017KT 16/M04 A2976 RMK A01 T01561035  RH  027%=      5-min Rain = 0
KGO1 211821Z 20019KT 16/M04 A2976 RMK A01 T01571036  RH  026%=      5-min Rain = 0
KGO1 211822Z 21018KT 16/M04 A2976 RMK A01 T01581038  RH  026%=      5-min Rain = 0
KGO1 211823Z 21015KT 16/M04 A2976 RMK A01 T01571038  RH  026%=      5-min Rain = 0
KGO1 211824Z 20016KT 16/M03 A2975 RMK A01 T01591033  RH  027%=      5-min Rain = 0
KGO1 211825Z 21016G21KT 16/M04 A2975 RMK A01 T01611036  RH  026%=      5-min Rain = 0
KGO1 211826Z 20014KT 16/M03 A2975 RMK A01 T01601033  RH  026%=      5-min Rain = 0
KGO1 211827Z 20017KT 16/M03 A2975 RMK A01 T01621032  RH  026%=      5-min Rain = 0
KGO1 211828Z 20016KT 16/M03 A2975 RMK A01 T01621034  RH  026%=      5-min Rain = 0
KGO1 211829Z 20017KT 16/M04 A2975 RMK A01 T01621035  RH  026%=      5-min Rain = 0
KGO1 211830Z 20017KT 16/M03 A2975 RMK A01 T01621034  RH  026%=      5-min Rain = 0
KGO1 211831Z 20018KT 16/M03 A2975 RMK A01 T01631034  RH  026%=      5-min Rain = 0
KGO1 211832Z 20017KT 17/M03 A2975 RMK A01 T01651034  RH  025%=      5-min Rain = 0
KGO1 211833Z 20017KT 17/M04 A2975 RMK A01 T01661035  RH  025%=      5-min Rain = 0
KGO1 211834Z 20018KT 17/M04 A2975 RMK A01 T01651036  RH  025%=      5-min Rain = 0
KGO1 211835Z 20017KT 17/M03 A2975 RMK A01 T01651032  RH  026%=      5-min Rain = 0
KGO1 211836Z 19019KT 17/M03 A2974 RMK A01 T01681032  RH  025%=      5-min Rain = 0
KGO1 211837Z 20018KT 17/M03 A2974 RMK A01 T01691034  RH  025%=      5-min Rain = 0
KGO1 211838Z 20016KT 17/M03 A2974 RMK A01 T01691034  RH  025%=      5-min Rain = 0
KGO1 211839Z 20017KT 17/M03 A2974 RMK A01 T01691034  RH  025%=      5-min Rain = 0
KGO1 211840Z 20017KT 17/M03 A2974 RMK A01 T01681034  RH  025%=      5-min Rain = 0
KGO1 211841Z 20020KT 17/M03 A2974 RMK A01 T01691034  RH  025%=      5-min Rain = 0
KGO1 211842Z 20017G22KT 17/M04 A2974 RMK A01 T01681035  RH  025%=      5-min Rain = 0
KGO1 211843Z 19018KT 17/M03 A2974 RMK A01 T01691032  RH  025%=      5-min Rain = 0
KGO1 211844Z 20018KT 17/M04 A2974 RMK A01 T01691036  RH  024%=      5-min Rain = 0
KGO1 211845Z 20020KT 17/M04 A2974 RMK A01 T01681035  RH  025%=      5-min Rain = 0
KGO1 211846Z 21019G24KT 17/M04 A2974 RMK A01 T01691038  RH  024%=      5-min Rain = 0
KGO1 211847Z 20015KT 17/M04 A2974 RMK A01 T01691037  RH  024%=      5-min Rain = 0
KGO1 211848Z 19019KT 17/M03 A2974 RMK A01 T01701034  RH  025%=      5-min Rain = 0
KGO1 211849Z 20017KT 17/M03 A2973 RMK A01 T01721034  RH  024%=      5-min Rain = 0
KGO1 211850Z 19019KT 17/M03 A2973 RMK A01 T01721034  RH  024%=      5-min Rain = 0
KGO1 211851Z 19017KT 17/M04 A2973 RMK A01 T01701035  RH  024%=      5-min Rain = 0
KGO1 211852Z 20018KT 17/M04 A2973 RMK A01 T01701036  RH  024%=      5-min Rain = 0
KGO1 211853Z 19018KT 17/M04 A2973 RMK A01 T01691035  RH  024%=      5-min Rain = 0
KGO1 211854Z 19018KT 17/M04 A2973 RMK A01 T01691037  RH  024%=      5-min Rain = 0
KGO1 211855Z 20019KT 17/M04 A2973 RMK A01 T01691036  RH  024%=      5-min Rain = 0
KGO1 211856Z 20019KT 17/M04 A2973 RMK A01 T01691038  RH  024%=      5-min Rain = 0
KGO1 211857Z 20016KT 17/M04 A2973 RMK A01 T01691036  RH  024%=      5-min Rain = 0
KGO1 211858Z 20018KT 17/M04 A2973 RMK A01 T01701036  RH  024%=      5-min Rain = 0
KGO1 211859Z 20017KT 17/M04 A2973 RMK A01 T01701036  RH  024%=      5-min Rain = 0
KGO1 211900Z 20016KT 17/M03 A2972 RMK A01 T01711034  RH  024%=      5-min Rain = 0
KGO1 211901Z 21014KT 17/M03 A2973 RMK A01 T01721032  RH  025%=      5-min Rain = 0
KGO1 211902Z 21016KT 17/M03 A2973 RMK A01 T01741032  RH  024%=      5-min Rain = 0
KGO1 211903Z 21017KT 18/M04 A2972 RMK A01 T01751035  RH  024%=      5-min Rain = 0
KGO1 211904Z 21019KT 17/M04 A2972 RMK A01 T01741035  RH  024%=      5-min Rain = 0
KGO1 211905Z 20018KT 17/M04 A2972 RMK A01 T01741037  RH  023%=      5-min Rain = 0
KGO1 211906Z 20018KT 18/M03 A2972 RMK A01 T01761034  RH  024%=      5-min Rain = 0
KGO1 211907Z 21016KT 18/M04 A2972 RMK A01 T01781035  RH  023%=      5-min Rain = 0
KGO1 211908Z 20017KT 18/M03 A2972 RMK A01 T01801031  RH  024%=      5-min Rain = 0
KGO1 211909Z 20017KT 18/M03 A2972 RMK A01 T01821030  RH  023%=      5-min Rain = 0
KGO1 211910Z 20017KT 19/M03 A2972 RMK A01 T01851027  RH  023%=      5-min Rain = 0
KGO1 211911Z 20018KT 19/M03 A2972 RMK A01 T01851032  RH  023%=      5-min Rain = 0
KGO1 211912Z 20017KT 18/M03 A2972 RMK A01 T01831032  RH  023%=      5-min Rain = 0
KGO1 211913Z 20018KT 18/M03 A2971 RMK A01 T01831032  RH  023%=      5-min Rain = 0
KGO1 211914Z 20017KT 18/M03 A2971 RMK A01 T01831033  RH  023%=      5-min Rain = 0
KGO1 211915Z 20017KT 18/M03 A2971 RMK A01 T01841033  RH  023%=      5-min Rain = 0
KGO1 211916Z 20016KT 19/M03 A2971 RMK A01 T01881028  RH  023%=      5-min Rain = 0
KGO1 211917Z 20018KT 19/M03 A2971 RMK A01 T01891033  RH  022%=      5-min Rain = 0
KGO1 211918Z 21017KT 19/M03 A2971 RMK A01 T01881032  RH  022%=      5-min Rain = 0
KGO1 211919Z 20017KT 19/M03 A2971 RMK A01 T01891032  RH  022%=      5-min Rain = 0
KGO1 211920Z 19020KT 19/M03 A2971 RMK A01 T01891033  RH  022%=      5-min Rain = 0
KGO1 211921Z 19020KT 19/M03 A2971 RMK A01 T01891033  RH  022%=      5-min Rain = 0
KGO1 211922Z 20021KT 19/M03 A297 RMK A01 T01881033  RH  022%=      5-min Rain = 0
KGO1 211923Z 20020KT 19/M04 A297 RMK A01 T01881036  RH  022%=      5-min Rain = 0
KGO1 211924Z 20018KT 19/M04 A297 RMK A01 T01861037  RH  022%=      5-min Rain = 0
KGO1 211925Z 20017KT 19/M03 A297 RMK A01 T01861032  RH  023%=      5-min Rain = 0
KGO1 211926Z 21020KT 19/M03 A297 RMK A01 T01891031  RH  022%=      5-min Rain = 0
KGO1 211927Z 20018KT 19/M03 A297 RMK A01 T01891033  RH  022%=      5-min Rain = 0
KGO1 211928Z 20019KT 19/M03 A297 RMK A01 T01891032  RH  022%=      5-min Rain = 0
KGO1 211929Z 19018KT 19/M03 A297 RMK A01 T01881033  RH  022%=      5-min Rain = 0
KGO1 211930Z 20021KT 19/M03 A297 RMK A01 T01871034  RH  022%=      5-min Rain = 0
KGO1 211931Z 20020KT 19/M04 A297 RMK A01 T01861035  RH  022%=      5-min Rain = 0
KGO1 211932Z 20020KT 19/M03 A297 RMK A01 T01851034  RH  022%=      5-min Rain = 0
KGO1 211933Z 20020KT 18/M04 A297 RMK A01 T01841036  RH  022%=      5-min Rain = 0
KGO1 211934Z 20020KT 18/M04 A297 RMK A01 T01831036  RH  022%=      5-min Rain = 0
KGO1 211935Z 20020KT 18/M04 A297 RMK A01 T01821036  RH  022%=      5-min Rain = 0
KGO1 211936Z 21019KT 18/M04 A297 RMK A01 T01831035  RH  023%=      5-min Rain = 0
KGO1 211937Z 20018G24KT 18/M03 A297 RMK A01 T01831032  RH  023%=      5-min Rain = 0
KGO1 211938Z 20021KT 18/M03 A297 RMK A01 T01841034  RH  022%=      5-min Rain = 0
KGO1 211939Z 20021KT 18/M04 A2969 RMK A01 T01841036  RH  022%=      5-min Rain = 0
KGO1 211940Z 20018KT 18/M04 A2969 RMK A01 T01821036  RH  022%=      5-min Rain = 0
KGO1 211941Z 20020G27KT 18/M03 A2969 RMK A01 T01821034  RH  023%=      5-min Rain = 0
KGO1 211942Z 20021KT 18/M04 A2969 RMK A01 T01841037  RH  022%=      5-min Rain = 0
KGO1 211943Z 20019G25KT 19/M04 A2969 RMK A01 T01851036  RH  022%=      5-min Rain = 0
KGO1 211944Z 20017KT 19/M03 A2969 RMK A01 T01861032  RH  023%=      5-min Rain = 0
KGO1 211945Z 20018KT 19/M03 A2969 RMK A01 T01871030  RH  023%=      5-min Rain = 0
KGO1 211946Z 20018KT 19/M03 A2969 RMK A01 T01881032  RH  022%=      5-min Rain = 0
KGO1 211947Z 20020KT 19/M03 A2969 RMK A01 T01871034  RH  022%=      5-min Rain = 0
KGO1 211948Z 20019KT 19/M04 A2969 RMK A01 T01861035  RH  022%=      5-min Rain = 0
KGO1 211949Z 20018KT 19/M04 A2969 RMK A01 T01851036  RH  022%=      5-min Rain = 0
KGO1 211950Z 21015KT 19/M03 A2969 RMK A01 T01851033  RH  023%=      5-min Rain = 0
KGO1 211951Z 21018KT 19/M03 A2969 RMK A01 T01861033  RH  022%=      5-min Rain = 0
KGO1 211952Z 21018KT 19/M04 A2969 RMK A01 T01851035  RH  022%=      5-min Rain = 0
KGO1 211953Z 21019KT 19/M03 A2968 RMK A01 T01851034  RH  022%=      5-min Rain = 0
KGO1 211954Z 21020G25KT 19/M04 A2968 RMK A01 T01851035  RH  022%=      5-min Rain = 0
KGO1 211955Z 21019KT 19/M03 A2968 RMK A01 T01851034  RH  022%=      5-min Rain = 0
KGO1 211956Z 21017KT 19/M03 A2968 RMK A01 T01851033  RH  023%=      5-min Rain = 0
KGO1 211957Z 21015G20KT 19/M03 A2968 RMK A01 T01851032  RH  023%=      5-min Rain = 0
KGO1 211958Z 21015KT 19/M03 A2968 RMK A01 T01871028  RH  023%=      5-min Rain = 0
KGO1 211959Z 21014KT 19/M03 A2968 RMK A01 T01881031  RH  023%=      5-min Rain = 0
KGO1 212000Z 20016KT 19/M03 A2968 RMK A01 T01881027  RH  023%=      5-min Rain = 0
KGO1 212001Z 20016KT 19/M03 A2968 RMK A01 T01891029  RH  023%=      5-min Rain = 0
KGO1 212002Z 20019KT 19/M03 A2968 RMK A01 T01891030  RH  022%=      5-min Rain = 0
KGO1 212003Z 20017KT 19/M03 A2968 RMK A01 T01891031  RH  022%=      5-min Rain = 0
KGO1 212004Z 19017KT 19/M03 A2968 RMK A01 T01891031  RH  022%=      5-min Rain = 0
KGO1 212005Z 20019KT 19/M03 A2968 RMK A01 T01891031  RH  022%=      5-min Rain = 0
KGO1 212006Z 21016KT 19/M03 A2968 RMK A01 T01901031  RH  022%=      5-min Rain = 0
KGO1 212007Z 20013KT 19/M03 A2968 RMK A01 T01911025  RH  023%=      5-min Rain = 0
KGO1 212008Z 21016KT 19/M03 A2968 RMK A01 T01931026  RH  023%=      5-min Rain = 0
KGO1 212009Z 20015KT 19/M03 A2968 RMK A01 T01931029  RH  022%=      5-min Rain = 0
KGO1 212010Z 20014KT 19/M03 A2967 RMK A01 T01931027  RH  022%=      5-min Rain = 0
KGO1 212011Z 21013KT 19/M03 A2967 RMK A01 T01941026  RH  022%=      5-min Rain = 0
KGO1 212012Z 21015KT 19/M03 A2967 RMK A01 T01941026  RH  022%=      5-min Rain = 0
KGO1 212013Z 20018KT 20/M03 A2967 RMK A01 T01951027  RH  022%=      5-min Rain = 0
KGO1 212014Z 20016KT 20/M03 A2967 RMK A01 T01951031  RH  022%=      5-min Rain = 0
KGO1 212015Z 19015KT 19/M03 A2967 RMK A01 T01941030  RH  022%=      5-min Rain = 0
KGO1 212016Z 20016KT 19/M03 A2967 RMK A01 T01941028  RH  022%=      5-min Rain = 0
KGO1 212017Z 20014KT 20/M03 A2967 RMK A01 T01951028  RH  022%=      5-min Rain = 0
KGO1 212018Z 18014KT 20/M02 A2967 RMK A01 T01961024  RH  022%=      5-min Rain = 0
KGO1 212019Z 16013KT 19/M02 A2967 RMK A01 T01941018  RH  024%=      5-min Rain = 0
KGO1 212020Z 17013KT 19/M02 A2967 RMK A01 T01911019  RH  024%=      5-min Rain = 0
KGO1 212021Z 17013KT 19/M02 A2967 RMK A01 T01891018  RH  025%=      5-min Rain = 0
KGO1 212022Z 17012KT 19/M02 A2967 RMK A01 T01891020  RH  024%=      5-min Rain = 0
KGO1 212023Z 17013KT 19/M02 A2967 RMK A01 T01901019  RH  024%=      5-min Rain = 0
KGO1 212024Z 17012KT 19/M02 A2967 RMK A01 T01901019  RH  024%=      5-min Rain = 0
KGO1 212025Z 17011KT 19/M02 A2967 RMK A01 T01901019  RH  024%=      5-min Rain = 0
KGO1 212026Z 17013KT 19/M02 A2967 RMK A01 T01911017  RH  024%=      5-min Rain = 0
KGO1 212027Z 17013KT 19/M02 A2967 RMK A01 T01921020  RH  024%=      5-min Rain = 0
KGO1 212028Z 18011KT 19/M02 A2967 RMK A01 T01921021  RH  024%=      5-min Rain = 0
KGO1 212029Z 17011KT 19/M02 A2966 RMK A01 T01921016  RH  024%=      5-min Rain = 0
KGO1 212030Z 17012KT 19/M02 A2966 RMK A01 T01941016  RH  024%=      5-min Rain = 0
KGO1 212031Z 17011KT 20/M02 A2966 RMK A01 T01951016  RH  024%=      5-min Rain = 0
KGO1 212032Z 17012KT 20/M02 A2966 RMK A01 T01961016  RH  024%=      5-min Rain = 0
KGO1 212033Z 17012KT 20/M02 A2966 RMK A01 T01971015  RH  024%=      5-min Rain = 0
KGO1 212034Z 17012KT 20/M02 A2966 RMK A01 T01971017  RH  024%=      5-min Rain = 0
KGO1 212035Z 16013KT 20/M02 A2966 RMK A01 T01971017  RH  024%=      5-min Rain = 0
KGO1 212036Z 16012KT 20/M02 A2966 RMK A01 T01971017  RH  024%=      5-min Rain = 0
KGO1 212037Z 16012KT 20/M02 A2966 RMK A01 T01971016  RH  024%=      5-min Rain = 0
KGO1 212038Z 17011KT 20/M02 A2966 RMK A01 T01981016  RH  024%=      5-min Rain = 0
KGO1 212039Z 16011KT 20/M01 A2966 RMK A01 T01971013  RH  024%=      5-min Rain = 0
KGO1 212040Z 17010KT 20/M01 A2966 RMK A01 T01981014  RH  024%=      5-min Rain = 0
KGO1 212041Z 17011KT 20/M02 A2966 RMK A01 T01991015  RH  024%=      5-min Rain = 0
KGO1 212042Z 17010KT 20/M02 A2966 RMK A01 T02011015  RH  023%=      5-min Rain = 0
KGO1 212043Z 18012KT 20/M01 A2966 RMK A01 T02021014  RH  023%=      5-min Rain = 0
KGO1 212044Z 17012KT 20/M02 A2965 RMK A01 T02031019  RH  022%=      5-min Rain = 0
KGO1 212045Z 18012KT 20/M02 A2965 RMK A01 T02041019  RH  022%=      5-min Rain = 0
KGO1 212046Z 18012KT 20/M02 A2965 RMK A01 T02041021  RH  022%=      5-min Rain = 0
KGO1 212047Z 17013KT 20/M02 A2965 RMK A01 T02041021  RH  022%=      5-min Rain = 0
KGO1 212048Z 17012KT 20/M02 A2965 RMK A01 T02031020  RH  022%=      5-min Rain = 0
KGO1 212049Z 17010KT 20/M02 A2965 RMK A01 T02011020  RH  022%=      5-min Rain = 0
KGO1 212050Z 17011KT 20/M02 A2965 RMK A01 T02011019  RH  023%=      5-min Rain = 0
KGO1 212051Z 18012KT 20/M02 A2965 RMK A01 T02011020  RH  022%=      5-min Rain = 0
KGO1 212052Z 18011KT 20/M02 A2965 RMK A01 T02001022  RH  022%=      5-min Rain = 0
KGO1 212053Z 18011KT 20/M02 A2965 RMK A01 T02011018  RH  023%=      5-min Rain = 0
KGO1 212054Z 18012KT 20/M02 A2965 RMK A01 T02031018  RH  023%=      5-min Rain = 0
KGO1 212055Z 18011KT 21/M02 A2965 RMK A01 T02051019  RH  022%=      5-min Rain = 0
KGO1 212056Z 18010KT 21/M02 A2965 RMK A01 T02061021  RH  022%=      5-min Rain = 0
KGO1 212057Z 19011KT 21/M02 A2965 RMK A01 T02061020  RH  022%=      5-min Rain = 0
KGO1 212058Z 18012KT 21/M02 A2965 RMK A01 T02061021  RH  022%=      5-min Rain = 0
KGO1 212059Z 18011KT 21/M02 A2965 RMK A01 T02061022  RH  021%=      5-min Rain = 0
KGO1 212100Z 18012KT 21/M02 A2965 RMK A01 T02061022  RH  021%=      5-min Rain = 0
KGO1 212101Z 18012KT 21/M02 A2965 RMK A01 T02051023  RH  021%=      5-min Rain = 0
KGO1 212102Z 17011KT 21/M02 A2965 RMK A01 T02051024  RH  021%=      5-min Rain = 0
KGO1 212103Z 17009KT 21/M02 A2965 RMK A01 T02051021  RH  022%=      5-min Rain = 0
KGO1 212104Z 17009KT 21/M02 A2965 RMK A01 T02061020  RH  022%=      5-min Rain = 0
KGO1 212105Z 17012KT 21/M02 A2965 RMK A01 T02071022  RH  021%=      5-min Rain = 0
KGO1 212106Z 16011KT 21/M02 A2965 RMK A01 T02081024  RH  021%=      5-min Rain = 0
KGO1 212107Z 16009KT 21/M02 A2965 RMK A01 T02081023  RH  021%=      5-min Rain = 0
KGO1 212108Z 16009KT 21/M02 A2965 RMK A01 T02091022  RH  021%=      5-min Rain = 0
KGO1 212109Z 18007KT 21/M03 A2965 RMK A01 T02101025  RH  021%=      5-min Rain = 0
KGO1 212110Z 17006KT 21/M03 A2964 RMK A01 T02101025  RH  020%=      5-min Rain = 0
KGO1 212111Z 16009KT 21/M02 A2964 RMK A01 T02101023  RH  021%=      5-min Rain = 0
KGO1 212112Z 16009G14KT 21/M03 A2964 RMK A01 T02101028  RH  020%=      5-min Rain = 0
KGO1 212113Z 16012KT 21/M02 A2964 RMK A01 T02121023  RH  021%=      5-min Rain = 0
KGO1 212114Z 17008KT 21/M02 A2964 RMK A01 T02131023  RH  020%=      5-min Rain = 0
KGO1 212115Z 16008KT 21/M02 A2964 RMK A01 T02131021  RH  021%=      5-min Rain = 0
KGO1 212116Z 16008KT 21/M02 A2964 RMK A01 T02131024  RH  020%=      5-min Rain = 0
KGO1 212117Z 16008KT 21/M02 A2964 RMK A01 T02131023  RH  020%=      5-min Rain = 0
KGO1 212118Z 17009KT 22/M02 A2964 RMK A01 T02151021  RH  021%=      5-min Rain = 0
KGO1 212119Z 16009KT 22/M03 A2964 RMK A01 T02151026  RH  020%=      5-min Rain = 0
KGO1 212120Z 16010KT 22/M03 A2964 RMK A01 T02161025  RH  020%=      5-min Rain = 0
KGO1 212121Z 17010KT 22/M02 A2964 RMK A01 T02181019  RH  020%=      5-min Rain = 0
KGO1 212122Z 17009KT 22/M02 A2964 RMK A01 T02201021  RH  020%=      5-min Rain = 0
KGO1 212123Z 16011KT 22/M02 A2964 RMK A01 T02211020  RH  020%=      5-min Rain = 0
KGO1 212124Z 16009KT 22/M02 A2964 RMK A01 T02221019  RH  020%=      5-min Rain = 0
KGO1 212125Z 16008KT 22/M02 A2964 RMK A01 T02231020  RH  020%=      5-min Rain = 0
KGO1 212126Z 16009KT 22/M02 A2964 RMK A01 T02221021  RH  020%=      5-min Rain = 0
KGO1 212127Z 16008KT 22/M02 A2964 RMK A01 T02211024  RH  019%=      5-min Rain = 0
KGO1 212128Z 16008KT 22/M02 A2964 RMK A01 T02221022  RH  019%=      5-min Rain = 0
KGO1 212129Z 17009KT 22/M02 A2964 RMK A01 T02231019  RH  020%=      5-min Rain = 0
KGO1 212130Z 17008KT 22/M02 A2964 RMK A01 T02221021  RH  020%=      5-min Rain = 0
KGO1 212131Z 17009KT 22/M02 A2963 RMK A01 T02221024  RH  019%=      5-min Rain = 0
KGO1 212132Z 18010KT 22/M03 A2963 RMK A01 T02201029  RH  019%=      5-min Rain = 0
KGO1 212133Z 19008KT 22/M03 A2963 RMK A01 T02201031  RH  018%=      5-min Rain = 0
KGO1 212134Z 18011KT 22/M03 A2963 RMK A01 T02201026  RH  019%=      5-min Rain = 0
KGO1 212135Z 16010KT 22/M02 A2963 RMK A01 T02201020  RH  020%=      5-min Rain = 0
KGO1 212136Z 16011KT 22/M02 A2963 RMK A01 T02201022  RH  020%=      5-min Rain = 0
KGO1 212137Z 17013KT 22/M02 A2963 RMK A01 T02201023  RH  020%=      5-min Rain = 0
KGO1 212138Z 16011KT 22/M02 A2963 RMK A01 T02211023  RH  019%=      5-min Rain = 0
KGO1 212139Z 16010KT 22/M02 A2963 RMK A01 T02211021  RH  020%=      5-min Rain = 0
KGO1 212140Z 17010KT 22/M02 A2963 RMK A01 T02221023  RH  019%=      5-min Rain = 0
KGO1 212141Z 17009KT 22/M03 A2963 RMK A01 T02211026  RH  019%=      5-min Rain = 0
KGO1 212142Z 18010KT 22/M02 A2963 RMK A01 T02211024  RH  019%=      5-min Rain = 0
KGO1 212143Z 19009KT 22/M02 A2963 RMK A01 T02211019  RH  020%=      5-min Rain = 0
KGO1 212144Z 20011KT 22/M02 A2963 RMK A01 T02221022  RH  019%=      5-min Rain = 0
KGO1 212145Z 20013KT 22/M03 A2963 RMK A01 T02241026  RH  019%=      5-min Rain = 0
KGO1 212146Z 20014KT 23/M03 A2963 RMK A01 T02261034  RH  017%=      5-min Rain = 0
KGO1 212147Z 21015KT 23/M04 A2963 RMK A01 T02271038  RH  017%=      5-min Rain = 0
KGO1 212148Z 20015KT 23/M04 A2963 RMK A01 T02281038  RH  017%=      5-min Rain = 0
KGO1 212149Z 20017KT 23/M04 A2962 RMK A01 T02291036  RH  017%=      5-min Rain = 0
KGO1 212150Z 20018G23KT 23/M04 A2962 RMK A01 T02301040  RH  016%=      5-min Rain = 0
KGO1 212151Z 21020KT 23/M04 A2962 RMK A01 T02301042  RH  016%=      5-min Rain = 0
KGO1 212152Z 20015KT 23/M04 A2962 RMK A01 T02301039  RH  016%=      5-min Rain = 0
KGO1 212153Z 21016KT 23/M04 A2962 RMK A01 T02301035  RH  017%=      5-min Rain = 0
KGO1 212154Z 21016KT 23/M04 A2962 RMK A01 T02311037  RH  016%=      5-min Rain = 0
KGO1 212155Z 20017G22KT 23/M04 A2962 RMK A01 T02321039  RH  016%=      5-min Rain = 0
KGO1 212156Z 20019KT 23/M04 A2962 RMK A01 T02321044  RH  016%=      5-min Rain = 0
KGO1 212157Z 20016KT 23/M05 A2962 RMK A01 T02311045  RH  016%=      5-min Rain = 0
KGO1 212158Z 20016KT 23/M04 A2962 RMK A01 T02311043  RH  016%=      5-min Rain = 0
KGO1 212159Z 20018KT 23/M04 A2962 RMK A01 T02321042  RH  016%=      5-min Rain = 0
KGO1 212200Z 21016KT 23/M04 A2962 RMK A01 T02331042  RH  016%=      5-min Rain = 0
KGO1 212201Z 21015KT 23/M04 A2962 RMK A01 T02341041  RH  016%=      5-min Rain = 0
KGO1 212202Z 21014KT 24/M04 A2962 RMK A01 T02361042  RH  015%=      5-min Rain = 0
KGO1 212203Z 20015G20KT 24/M04 A2962 RMK A01 T02371038  RH  016%=      5-min Rain = 0
KGO1 212204Z 20017KT 24/M04 A2962 RMK A01 T02391039  RH  016%=      5-min Rain = 0
KGO1 212205Z 20018KT 24/M04 A2962 RMK A01 T02381040  RH  015%=      5-min Rain = 0
KGO1 212206Z 19019KT 24/M04 A2962 RMK A01 T02381040  RH  015%=      5-min Rain = 0
KGO1 212207Z 20018G23KT 24/M04 A2962 RMK A01 T02381040  RH  015%=      5-min Rain = 0
KGO1 212208Z 20014KT 24/M04 A2962 RMK A01 T02371042  RH  015%=      5-min Rain = 0
KGO1 212209Z 20015KT 24/M04 A2962 RMK A01 T02371040  RH  016%=      5-min Rain = 0
KGO1 212210Z 21016KT 24/M04 A2962 RMK A01 T02371042  RH  015%=      5-min Rain = 0
KGO1 212211Z 20017KT 24/M04 A2962 RMK A01 T02371043  RH  015%=      5-min Rain = 0
KGO1 212212Z 20017KT 24/M04 A2962 RMK A01 T02371044  RH  015%=      5-min Rain = 0
KGO1 212213Z 20017G22KT 24/M04 A2962 RMK A01 T02351042  RH  015%=      5-min Rain = 0
KGO1 212214Z 21020G25KT 23/M04 A2962 RMK A01 T02341042  RH  016%=      5-min Rain = 0
KGO1 212215Z 21016KT 23/M05 A2962 RMK A01 T02331046  RH  015%=      5-min Rain = 0
KGO1 212216Z 20017KT 23/M05 A2962 RMK A01 T02321046  RH  015%=      5-min Rain = 0
KGO1 212217Z 20020KT 23/M05 A2962 RMK A01 T02321047  RH  015%=      5-min Rain = 0
KGO1 212218Z 21022KT 23/M05 A2962 RMK A01 T02321048  RH  015%=      5-min Rain = 0
KGO1 212219Z 21023KT 23/M05 A2962 RMK A01 T02321046  RH  015%=      5-min Rain = 0
KGO1 212220Z 21022KT 23/M05 A2962 RMK A01 T02321048  RH  015%=      5-min Rain = 0
KGO1 212221Z 20018KT 23/M05 A2962 RMK A01 T02331046  RH  015%=      5-min Rain = 0
KGO1 212222Z 20019G24KT 23/M05 A2962 RMK A01 T02341047  RH  015%=      5-min Rain = 0
KGO1 212223Z 21015KT 23/M05 A2962 RMK A01 T02331045  RH  015%=      5-min Rain = 0
KGO1 212224Z 21016KT 23/M04 A2962 RMK A01 T02321044  RH  015%=      5-min Rain = 0
KGO1 212225Z 20015KT 23/M04 A2962 RMK A01 T02321044  RH  015%=      5-min Rain = 0
KGO1 212226Z 20015KT 23/M04 A2962 RMK A01 T02321043  RH  016%=      5-min Rain = 0
KGO1 212227Z 20018KT 23/M05 A2962 RMK A01 T02331046  RH  015%=      5-min Rain = 0
KGO1 212228Z 19018KT 23/M05 A2962 RMK A01 T02331047  RH  015%=      5-min Rain = 0
KGO1 212229Z 20021KT 23/M05 A2962 RMK A01 T02331047  RH  015%=      5-min Rain = 0
KGO1 212230Z 20018KT 23/M05 A2962 RMK A01 T02331046  RH  015%=      5-min Rain = 0
KGO1 212231Z 20022KT 23/M05 A2962 RMK A01 T02331045  RH  015%=      5-min Rain = 0
KGO1 212232Z 20021KT 23/M05 A2962 RMK A01 T02321045  RH  015%=      5-min Rain = 0
KGO1 212233Z 20020KT 23/M05 A2962 RMK A01 T02301046  RH  015%=      5-min Rain = 0
KGO1 212234Z 20019KT 23/M05 A2961 RMK A01 T02301045  RH  016%=      5-min Rain = 0
KGO1 212235Z 20020KT 23/M05 A2961 RMK A01 T02291045  RH  016%=      5-min Rain = 0
KGO1 212236Z 20018KT 23/M04 A2961 RMK A01 T02291044  RH  016%=      5-min Rain = 0
KGO1 212237Z 19017KT 23/M04 A2961 RMK A01 T02281043  RH  016%=      5-min Rain = 0
KGO1 212238Z 20015KT 23/M04 A2961 RMK A01 T02271041  RH  016%=      5-min Rain = 0
KGO1 212239Z 19014KT 23/M04 A2961 RMK A01 T02261040  RH  017%=      5-min Rain = 0
KGO1 212240Z 19014KT 23/M04 A2961 RMK A01 T02251039  RH  017%=      5-min Rain = 0
KGO1 212241Z 19015KT 23/M04 A2961 RMK A01 T02251039  RH  017%=      5-min Rain = 0
KGO1 212242Z 19017KT 22/M04 A2961 RMK A01 T02241041  RH  017%=      5-min Rain = 0
KGO1 212243Z 20017KT 23/M04 A2961 RMK A01 T02251040  RH  017%=      5-min Rain = 0
KGO1 212244Z 19018KT 23/M04 A2961 RMK A01 T02251041  RH  017%=      5-min Rain = 0
KGO1 212245Z 20016KT 23/M04 A2961 RMK A01 T02251040  RH  017%=      5-min Rain = 0
KGO1 212246Z 19015KT 23/M04 A2961 RMK A01 T02251039  RH  017%=      5-min Rain = 0
KGO1 212247Z 19016KT 22/M04 A2961 RMK A01 T02241039  RH  017%=      5-min Rain = 0
KGO1 212248Z 19015KT 22/M04 A2961 RMK A01 T02231038  RH  017%=      5-min Rain = 0
KGO1 212249Z 20013KT 22/M04 A2961 RMK A01 T02231038  RH  017%=      5-min Rain = 0
KGO1 212250Z 20015KT 22/M04 A2961 RMK A01 T02221039  RH  017%=      5-min Rain = 0
KGO1 212251Z 20014KT 22/M04 A2961 RMK A01 T02221039  RH  017%=      5-min Rain = 0
KGO1 212252Z 20013KT 22/M04 A2961 RMK A01 T02221038  RH  017%=      5-min Rain = 0
KGO1 212253Z 19018KT 22/M04 A2961 RMK A01 T02201038  RH  018%=      5-min Rain = 0
KGO1 212254Z 19019KT 22/M04 A2961 RMK A01 T02191040  RH  017%=      5-min Rain = 0
KGO1 212255Z 20019KT 22/M04 A2961 RMK A01 T02201042  RH  017%=      5-min Rain = 0
KGO1 212256Z 19018KT 22/M04 A2961 RMK A01 T02211042  RH  017%=      5-min Rain = 0
KGO1 212257Z 19020KT 22/M04 A2961 RMK A01 T02201041  RH  017%=      5-min Rain = 0
KGO1 212258Z 19019KT 22/M04 A2961 RMK A01 T02201042  RH  017%=      5-min Rain = 0
KGO1 212259Z 19022KT 22/M04 A2961 RMK A01 T02191043  RH  017%=      5-min Rain = 0
KGO1 212300Z 19020KT 22/M04 A2961 RMK A01 T02201044  RH  017%=      5-min Rain = 0
KGO1 212301Z 19019KT 22/M04 A2961 RMK A01 T02201043  RH  017%=      5-min Rain = 0
KGO1 212302Z 19016KT 22/M04 A2961 RMK A01 T02191042  RH  017%=      5-min Rain = 0
KGO1 212303Z 19018KT 22/M04 A2961 RMK A01 T02181042  RH  017%=      5-min Rain = 0
KGO1 212304Z 19017KT 22/M04 A2961 RMK A01 T02171042  RH  017%=      5-min Rain = 0
KGO1 212305Z 19018KT 22/M04 A2961 RMK A01 T02161043  RH  017%=      5-min Rain = 0
KGO1 212306Z 19018KT 22/M04 A2961 RMK A01 T02161044  RH  017%=      5-min Rain = 0
KGO1 212307Z 19018KT 22/M04 A2961 RMK A01 T02161044  RH  017%=      5-min Rain = 0
KGO1 212308Z 19018KT 22/M05 A2961 RMK A01 T02161045  RH  017%=      5-min Rain = 0
KGO1 212309Z 19018KT 22/M05 A2961 RMK A01 T02161045  RH  017%=      5-min Rain = 0
KGO1 212310Z 18014KT 22/M04 A2961 RMK A01 T02161044  RH  017%=      5-min Rain = 0
KGO1 212311Z 19014KT 22/M04 A2961 RMK A01 T02151044  RH  017%=      5-min Rain = 0
KGO1 212312Z 19016KT 21/M04 A2961 RMK A01 T02131044  RH  017%=      5-min Rain = 0
KGO1 212313Z 19014KT 21/M04 A2961 RMK A01 T02131043  RH  018%=      5-min Rain = 0
KGO1 212314Z 19014KT 21/M04 A2961 RMK A01 T02121044  RH  018%=      5-min Rain = 0
KGO1 212315Z 19015KT 21/M04 A2961 RMK A01 T02121043  RH  018%=      5-min Rain = 0
KGO1 212316Z 19013KT 21/M04 A2961 RMK A01 T02111044  RH  018%=      5-min Rain = 0
KGO1 212317Z 19012KT 21/M04 A2961 RMK A01 T02111043  RH  018%=      5-min Rain = 0
KGO1 212318Z 19013KT 21/M04 A2961 RMK A01 T02111043  RH  018%=      5-min Rain = 0
KGO1 212319Z 19012KT 21/M04 A2961 RMK A01 T02111043  RH  018%=      5-min Rain = 0
KGO1 212320Z 19011KT 21/M04 A2961 RMK A01 T02101042  RH  018%=      5-min Rain = 0
KGO1 212321Z 19011KT 21/M04 A2961 RMK A01 T02081042  RH  018%=      5-min Rain = 0
KGO1 212322Z 19011KT 21/M04 A2961 RMK A01 T02071042  RH  018%=      5-min Rain = 0
KGO1 212323Z 19013KT 21/M04 A2961 RMK A01 T02061044  RH  018%=      5-min Rain = 0
KGO1 212324Z 19012KT 21/M04 A2961 RMK A01 T02081044  RH  018%=      5-min Rain = 0
KGO1 212325Z 19012KT 21/M04 A2961 RMK A01 T02081043  RH  018%=      5-min Rain = 0
KGO1 212326Z 19012KT 21/M04 A2961 RMK A01 T02071044  RH  018%=      5-min Rain = 0
KGO1 212327Z 19012KT 21/M04 A2961 RMK A01 T02071044  RH  018%=      5-min Rain = 0
KGO1 212328Z 19011KT 21/M04 A2961 RMK A01 T02061044  RH  018%=      5-min Rain = 0
KGO1 212329Z 19013KT 21/M04 A296 RMK A01 T02061044  RH  018%=      5-min Rain = 0
KGO1 212330Z 19013KT 21/M04 A296 RMK A01 T02051044  RH  018%=      5-min Rain = 0
KGO1 212331Z 19015KT 21/M05 A296 RMK A01 T02051046  RH  018%=      5-min Rain = 0
KGO1 212332Z 19015G20KT 21/M05 A296 RMK A01 T02061046  RH  018%=      5-min Rain = 0
KGO1 212333Z 19018KT 21/M05 A296 RMK A01 T02071047  RH  018%=      5-min Rain = 0
KGO1 212334Z 18015KT 21/M05 A296 RMK A01 T02071047  RH  018%=      5-min Rain = 0
KGO1 212335Z 18016KT 21/M05 A296 RMK A01 T02071046  RH  018%=      5-min Rain = 0
KGO1 212336Z 18018KT 21/M05 A296 RMK A01 T02061047  RH  018%=      5-min Rain = 0
KGO1 212337Z 18017KT 21/M05 A296 RMK A01 T02071048  RH  018%=      5-min Rain = 0
KGO1 212338Z 19017KT 21/M05 A296 RMK A01 T02071048  RH  018%=      5-min Rain = 0
KGO1 212339Z 18019KT 21/M05 A296 RMK A01 T02081048  RH  018%=      5-min Rain = 0
KGO1 212340Z 19018KT 21/M05 A296 RMK A01 T02071048  RH  018%=      5-min Rain = 0
KGO1 212341Z 19016KT 21/M05 A296 RMK A01 T02071048  RH  018%=      5-min Rain = 0
KGO1 212342Z 19016KT 21/M05 A296 RMK A01 T02061048  RH  018%=      5-min Rain = 0
KGO1 212343Z 19018KT 21/M05 A296 RMK A01 T02051049  RH  018%=      5-min Rain = 0
KGO1 212344Z 19017G22KT 20/M05 A296 RMK A01 T02041050  RH  018%=      5-min Rain = 0
KGO1 212345Z 19016KT 21/M05 A296 RMK A01 T02051049  RH  018%=      5-min Rain = 0
KGO1 212346Z 20015KT 20/M05 A296 RMK A01 T02041049  RH  018%=      5-min Rain = 0
KGO1 212347Z 19016KT 20/M05 A296 RMK A01 T02031049  RH  018%=      5-min Rain = 0
KGO1 212348Z 19015KT 20/M05 A296 RMK A01 T02031049  RH  018%=      5-min Rain = 0
KGO1 212349Z 19015KT 20/M05 A296 RMK A01 T02021049  RH  018%=      5-min Rain = 0
KGO1 212350Z 19016KT 20/M05 A296 RMK A01 T02011049  RH  018%=      5-min Rain = 0
KGO1 212351Z 19014KT 20/M05 A296 RMK A01 T02001049  RH  018%=      5-min Rain = 0
KGO1 212352Z 19012KT 20/M05 A296 RMK A01 T01991049  RH  018%=      5-min Rain = 0
KGO1 212353Z 19014KT 20/M05 A296 RMK A01 T01971049  RH  019%=      5-min Rain = 0
KGO1 212354Z 19015KT 20/M05 A296 RMK A01 T01971049  RH  019%=      5-min Rain = 0
KGO1 212355Z 19014KT 20/M05 A296 RMK A01 T01971049  RH  019%=      5-min Rain = 0
KGO1 212356Z 19014KT 20/M05 A296 RMK A01 T01971049  RH  019%=      5-min Rain = 0
KGO1 212357Z 19015KT 20/M05 A296 RMK A01 T01971049  RH  019%=      5-min Rain = 0
KGO1 212358Z 19015KT 20/M05 A296 RMK A01 T01961049  RH  019%=      5-min Rain = 0
KGO1 212359Z 19016KT 20/M05 A296 RMK A01 T01971050  RH  018%=      5-min Rain = 0
KGO1 220000Z 19015KT 20/M05 A296 RMK A01 T01971050  RH  018%=      5-min Rain = 0
KGO1 220001Z 19015KT 20/M05 A296 RMK A01 T01971050  RH  018%=      5-min Rain = 0
KGO1 220002Z 19015KT 20/M05 A296 RMK A01 T01971050  RH  018%=      5-min Rain = 0
KGO1 220003Z 19015KT 20/M05 A296 RMK A01 T01971049  RH  019%=      5-min Rain = 0
KGO1 220004Z 19017KT 20/M05 A296 RMK A01 T01961050  RH  018%=      5-min Rain = 0
KGO1 220005Z 19017KT 20/M05 A296 RMK A01 T01961050  RH  018%=      5-min Rain = 0
KGO1 220006Z 19017KT 20/M05 A296 RMK A01 T01971050  RH  018%=      5-min Rain = 0
KGO1 220007Z 19016KT 20/M05 A296 RMK A01 T01981050  RH  018%=      5-min Rain = 0
KGO1 220008Z 19015KT 20/M05 A296 RMK A01 T01971050  RH  018%=      5-min Rain = 0
KGO1 220009Z 19017KT 20/M05 A296 RMK A01 T01961050  RH  019%=      5-min Rain = 0
KGO1 220010Z 19016KT 20/M05 A296 RMK A01 T01961050  RH  019%=      5-min Rain = 0
KGO1 220011Z 18015KT 20/M05 A296 RMK A01 T01961049  RH  019%=      5-min Rain = 0
KGO1 220012Z 18017KT 20/M05 A296 RMK A01 T01951050  RH  019%=      5-min Rain = 0
KGO1 220013Z 18016KT 19/M05 A296 RMK A01 T01941050  RH  019%=      5-min Rain = 0
KGO1 220014Z 18015KT 19/M05 A296 RMK A01 T01941049  RH  019%=      5-min Rain = 0
KGO1 220015Z 18015KT 19/M05 A296 RMK A01 T01941049  RH  019%=      5-min Rain = 0
KGO1 220016Z 18014KT 19/M05 A296 RMK A01 T01931049  RH  019%=      5-min Rain = 0
KGO1 220017Z 18014KT 19/M05 A296 RMK A01 T01931048  RH  019%=      5-min Rain = 0
KGO1 220018Z 18013KT 19/M05 A296 RMK A01 T01911048  RH  019%=      5-min Rain = 0
KGO1 220019Z 18013KT 19/M05 A296 RMK A01 T01901048  RH  020%=      5-min Rain = 0
KGO1 220020Z 18012KT 19/M05 A296 RMK A01 T01891047  RH  020%=      5-min Rain = 0
KGO1 220021Z 18013KT 19/M05 A296 RMK A01 T01871047  RH  020%=      5-min Rain = 0
KGO1 220022Z 18014KT 19/M05 A296 RMK A01 T01861047  RH  020%=      5-min Rain = 0
KGO1 220023Z 18013G18KT 19/M05 A296 RMK A01 T01861048  RH  020%=      5-min Rain = 0
KGO1 220024Z 18015KT 19/M05 A296 RMK A01 T01861047  RH  020%=      5-min Rain = 0
KGO1 220025Z 18014KT 19/M05 A296 RMK A01 T01871047  RH  020%=      5-min Rain = 0
KGO1 220026Z 18014KT 19/M05 A296 RMK A01 T01871047  RH  020%=      5-min Rain = 0
KGO1 220027Z 18013KT 19/M05 A296 RMK A01 T01861047  RH  020%=      5-min Rain = 0
KGO1 220028Z 18013KT 19/M05 A296 RMK A01 T01851047  RH  020%=      5-min Rain = 0
KGO1 220029Z 18014KT 18/M05 A296 RMK A01 T01841047  RH  020%=      5-min Rain = 0
KGO1 220030Z 18014KT 18/M05 A296 RMK A01 T01841047  RH  020%=      5-min Rain = 0
KGO1 220031Z 18014KT 18/M05 A296 RMK A01 T01841046  RH  021%=      5-min Rain = 0
KGO1 220032Z 18013KT 18/M05 A296 RMK A01 T01831047  RH  021%=      5-min Rain = 0
KGO1 220033Z 17013KT 18/M05 A296 RMK A01 T01831047  RH  021%=      5-min Rain = 0
KGO1 220034Z 17013KT 18/M05 A296 RMK A01 T01811047  RH  021%=      5-min Rain = 0
KGO1 220035Z 18013KT 18/M05 A296 RMK A01 T01811047  RH  021%=      5-min Rain = 0
KGO1 220036Z 17015KT 18/M05 A296 RMK A01 T01801047  RH  021%=      5-min Rain = 0
KGO1 220037Z 17014KT 18/M05 A296 RMK A01 T01821047  RH  021%=      5-min Rain = 0
KGO1 220038Z 17013KT 18/M05 A296 RMK A01 T01821046  RH  021%=      5-min Rain = 0
KGO1 220039Z 17013KT 18/M05 A296 RMK A01 T01811046  RH  021%=      5-min Rain = 0
KGO1 220040Z 16012KT 18/M05 A296 RMK A01 T01791046  RH  021%=      5-min Rain = 0
KGO1 220041Z 16013KT 18/M05 A296 RMK A01 T01771046  RH  021%=      5-min Rain = 0
KGO1 220042Z 16014KT 18/M04 A296 RMK A01 T01761044  RH  022%=      5-min Rain = 0
KGO1 220043Z 16016KT 18/M04 A296 RMK A01 T01761042  RH  022%=      5-min Rain = 0
KGO1 220044Z 16016KT 18/M04 A296 RMK A01 T01761040  RH  023%=      5-min Rain = 0
KGO1 220045Z 16015KT 18/M04 A296 RMK A01 T01771039  RH  023%=      5-min Rain = 0
KGO1 220046Z 16017KT 18/M04 A296 RMK A01 T01761038  RH  023%=      5-min Rain = 0
KGO1 220047Z 16016KT 18/M04 A296 RMK A01 T01761037  RH  023%=      5-min Rain = 0
KGO1 220048Z 16015KT 18/M04 A296 RMK A01 T01761036  RH  023%=      5-min Rain = 0
KGO1 220049Z 16014KT 17/M04 A296 RMK A01 T01741036  RH  024%=      5-min Rain = 0
KGO1 220050Z 17014KT 17/M04 A296 RMK A01 T01731036  RH  024%=      5-min Rain = 0
KGO1 220051Z 16015KT 17/M04 A296 RMK A01 T01721035  RH  024%=      5-min Rain = 0
KGO1 220052Z 17014KT 17/M03 A296 RMK A01 T01721033  RH  024%=      5-min Rain = 0
KGO1 220053Z 17013KT 17/M03 A296 RMK A01 T01721034  RH  024%=      5-min Rain = 0
KGO1 220054Z 17013KT 17/M03 A296 RMK A01 T01711033  RH  025%=      5-min Rain = 0
KGO1 220055Z 17012KT 17/M03 A296 RMK A01 T01701033  RH  025%=      5-min Rain = 0
KGO1 220056Z 17012KT 17/M03 A296 RMK A01 T01701033  RH  025%=      5-min Rain = 0
KGO1 220057Z 17011KT 17/M03 A296 RMK A01 T01691033  RH  025%=      5-min Rain = 0
KGO1 220058Z 16012KT 17/M03 A296 RMK A01 T01681033  RH  025%=      5-min Rain = 0
KGO1 220059Z 17012KT 17/M03 A296 RMK A01 T01691033  RH  025%=      5-min Rain = 0
KGO1 220100Z 16010KT 17/M03 A296 RMK A01 T01691033  RH  025%=      5-min Rain = 0
KGO1 220101Z 15009KT 17/M03 A296 RMK A01 T01671031  RH  025%=      5-min Rain = 0
KGO1 220102Z 15010KT 16/M03 A296 RMK A01 T01621028  RH  027%=      5-min Rain = 0
KGO1 220103Z 15010KT 16/M03 A296 RMK A01 T01571026  RH  028%=      5-min Rain = 0
KGO1 220104Z 14010KT 15/M03 A296 RMK A01 T01531025  RH  029%=      5-min Rain = 0
KGO1 220105Z 15009KT 15/M02 A296 RMK A01 T01511023  RH  030%=      5-min Rain = 0
KGO1 220106Z 14010KT 15/M02 A296 RMK A01 T01491023  RH  030%=      5-min Rain = 0
KGO1 220107Z 14011KT 15/M02 A296 RMK A01 T01471023  RH  031%=      5-min Rain = 0
KGO1 220108Z 14010KT 15/M02 A296 RMK A01 T01451020  RH  032%=      5-min Rain = 0
KGO1 220109Z 14009KT 14/M02 A296 RMK A01 T01441021  RH  032%=      5-min Rain = 0
KGO1 220110Z 14008KT 14/M02 A296 RMK A01 T01441020  RH  032%=      5-min Rain = 0
KGO1 220111Z 14009KT 14/M02 A296 RMK A01 T01431020  RH  032%=      5-min Rain = 0
KGO1 220112Z 14009KT 14/M02 A296 RMK A01 T01421020  RH  033%=      5-min Rain = 0
KGO1 220113Z 14008KT 14/M02 A296 RMK A01 T01411019  RH  033%=      5-min Rain = 0
KGO1 220114Z 13009KT 14/M02 A296 RMK A01 T01401018  RH  034%=      5-min Rain = 0
KGO1 220115Z 14009KT 14/M02 A296 RMK A01 T01401017  RH  034%=      5-min Rain = 0
KGO1 220116Z 13009KT 14/M02 A296 RMK A01 T01401017  RH  034%=      5-min Rain = 0
KGO1 220117Z 14009KT 14/M02 A296 RMK A01 T01401016  RH  034%=      5-min Rain = 0
KGO1 220118Z 14008KT 14/M02 A296 RMK A01 T01401017  RH  034%=      5-min Rain = 0
KGO1 220119Z 14008KT 14/M02 A296 RMK A01 T01391017  RH  034%=      5-min Rain = 0
KGO1 220120Z 14008KT 14/M02 A296 RMK A01 T01381017  RH  034%=      5-min Rain = 0
KGO1 220121Z 14008KT 14/M02 A296 RMK A01 T01371017  RH  034%=      5-min Rain = 0
KGO1 220122Z 15007KT 14/M02 A296 RMK A01 T01361017  RH  035%=      5-min Rain = 0
KGO1 220123Z 14007KT 14/M02 A296 RMK A01 T01371016  RH  035%=      5-min Rain = 0
KGO1 220124Z 14008KT 14/M02 A296 RMK A01 T01371016  RH  035%=      5-min Rain = 0
KGO1 220125Z 14008KT 14/M02 A296 RMK A01 T01381016  RH  035%=      5-min Rain = 0
KGO1 220126Z 14008KT 14/M02 A296 RMK A01 T01381016  RH  034%=      5-min Rain = 0
KGO1 220127Z 14009KT 14/M02 A296 RMK A01 T01371017  RH  034%=      5-min Rain = 0
KGO1 220128Z 14009KT 14/M02 A296 RMK A01 T01361017  RH  035%=      5-min Rain = 0
KGO1 220129Z 14009KT 14/M02 A296 RMK A01 T01351017  RH  035%=      5-min Rain = 0
KGO1 220130Z 14009KT 14/M02 A296 RMK A01 T01351017  RH  035%=      5-min Rain = 0
KGO1 220131Z 14010KT 13/M02 A296 RMK A01 T01341017  RH  035%=      5-min Rain = 0
KGO1 220132Z 15009KT 13/M02 A296 RMK A01 T01331017  RH  035%=      5-min Rain = 0
KGO1 220133Z 15009KT 13/M02 A2959 RMK A01 T01331017  RH  035%=      5-min Rain = 0
KGO1 220134Z 14009KT 13/M02 A2959 RMK A01 T01331017  RH  035%=      5-min Rain = 0
KGO1 220135Z 14010KT 13/M02 A2959 RMK A01 T01321017  RH  036%=      5-min Rain = 0
KGO1 220136Z 14010KT 13/M02 A2959 RMK A01 T01301017  RH  036%=      5-min Rain = 0
KGO1 220137Z 14012KT 13/M02 A2959 RMK A01 T01301016  RH  036%=      5-min Rain = 0
KGO1 220138Z 14012KT 13/M02 A2959 RMK A01 T01311016  RH  036%=      5-min Rain = 0
KGO1 220139Z 14011KT 13/M02 A2959 RMK A01 T01321015  RH  036%=      5-min Rain = 0
KGO1 220140Z 14012KT 13/M02 A2959 RMK A01 T01331015  RH  036%=      5-min Rain = 0
KGO1 220141Z 14012KT 13/M02 A2959 RMK A01 T01331015  RH  036%=      5-min Rain = 0
KGO1 220142Z 13013KT 13/M02 A2959 RMK A01 T01331015  RH  036%=      5-min Rain = 0
KGO1 220143Z 13013KT 13/M01 A2959 RMK A01 T01341014  RH  036%=      5-min Rain = 0
KGO1 220144Z 13014KT 14/M01 A2959 RMK A01 T01351013  RH  036%=      5-min Rain = 0
KGO1 220145Z 13013KT 14/M01 A2959 RMK A01 T01361012  RH  036%=      5-min Rain = 0
KGO1 220146Z 13014KT 14/M01 A2959 RMK A01 T01371012  RH  036%=      5-min Rain = 0
KGO1 220147Z 13014KT 14/M01 A2959 RMK A01 T01381012  RH  036%=      5-min Rain = 0
KGO1 220148Z 12016KT 14/M01 A2959 RMK A01 T01391011  RH  036%=      5-min Rain = 0
KGO1 220149Z 13015KT 14/M01 A2959 RMK A01 T01401011  RH  035%=      5-min Rain = 0
KGO1 220150Z 12016KT 14/M01 A2959 RMK A01 T01411011  RH  035%=      5-min Rain = 0
KGO1 220151Z 12016KT 14/M01 A2959 RMK A01 T01411012  RH  035%=      5-min Rain = 0
KGO1 220152Z 13015KT 14/M01 A2959 RMK A01 T01421012  RH  035%=      5-min Rain = 0
KGO1 220153Z 13016KT 14/M01 A2959 RMK A01 T01421012  RH  035%=      5-min Rain = 0
KGO1 220154Z 13015KT 14/M01 A2959 RMK A01 T01421012  RH  034%=      5-min Rain = 0
KGO1 220155Z 13014KT 14/M01 A2959 RMK A01 T01421014  RH  034%=      5-min Rain = 0
KGO1 220156Z 13016KT 14/M02 A2959 RMK A01 T01431015  RH  034%=      5-min Rain = 0
KGO1 220157Z 13017KT 15/M02 A2959 RMK A01 T01451015  RH  033%=      5-min Rain = 0
KGO1 220158Z 13015KT 15/M02 A2959 RMK A01 T01471015  RH  033%=      5-min Rain = 0
KGO1 220159Z 13016KT 15/M02 A2959 RMK A01 T01481015  RH  033%=      5-min Rain = 0
KGO1 220200Z 13015KT 15/M01 A2959 RMK A01 T01481014  RH  033%=      5-min Rain = 0
KGO1 220201Z 12015KT 15/M01 A2959 RMK A01 T01471014  RH  033%=      5-min Rain = 0
KGO1 220202Z 12017KT 15/M01 A2959 RMK A01 T01461014  RH  033%=      5-min Rain = 0
KGO1 220203Z 12016KT 15/M01 A2959 RMK A01 T01461013  RH  033%=      5-min Rain = 0
KGO1 220204Z 13015KT 15/M01 A2959 RMK A01 T01461013  RH  033%=      5-min Rain = 0
KGO1 220205Z 12016KT 15/M01 A2959 RMK A01 T01451013  RH  034%=      5-min Rain = 0
KGO1 220206Z 12015KT 15/M01 A2959 RMK A01 T01451012  RH  034%=      5-min Rain = 0
KGO1 220207Z 12015KT 14/M01 A2959 RMK A01 T01441012  RH  034%=      5-min Rain = 0
KGO1 220208Z 12014KT 14/M01 A2959 RMK A01 T01431012  RH  034%=      5-min Rain = 0
KGO1 220209Z 12013KT 14/M01 A2959 RMK A01 T01431012  RH  034%=      5-min Rain = 0
KGO1 220210Z 12014KT 14/M01 A2959 RMK A01 T01411012  RH  035%=      5-min Rain = 0
KGO1 220211Z 12016KT 14/M01 A2959 RMK A01 T01411012  RH  035%=      5-min Rain = 0
KGO1 220212Z 12014KT 14/M01 A2959 RMK A01 T01421011  RH  035%=      5-min Rain = 0
KGO1 220213Z 12013KT 14/M01 A2959 RMK A01 T01411012  RH  035%=      5-min Rain = 0
KGO1 220214Z 12013KT 14/M01 A2959 RMK A01 T01401011  RH  035%=      5-min Rain = 0
KGO1 220215Z 12014KT 14/M01 A2959 RMK A01 T01381012  RH  036%=      5-min Rain = 0
KGO1 220216Z 12014KT 14/M01 A2959 RMK A01 T01381012  RH  036%=      5-min Rain = 0
KGO1 220217Z 12013KT 14/M01 A2959 RMK A01 T01381011  RH  036%=      5-min Rain = 0
KGO1 220218Z 12015KT 14/M01 A2959 RMK A01 T01381011  RH  036%=      5-min Rain = 0
KGO1 220219Z 12014KT 14/M01 A2959 RMK A01 T01371011  RH  036%=      5-min Rain = 0
KGO1 220220Z 13015KT 14/M01 A2959 RMK A01 T01371011  RH  036%=      5-min Rain = 0
KGO1 220221Z 13014KT 14/M01 A2959 RMK A01 T01371012  RH  036%=      5-min Rain = 0
KGO1 220222Z 12013KT 14/M01 A2959 RMK A01 T01371011  RH  036%=      5-min Rain = 0
KGO1 220223Z 13014KT 14/M01 A2959 RMK A01 T01371011  RH  036%=      5-min Rain = 0
KGO1 220224Z 12013KT 14/M01 A2959 RMK A01 T01361011  RH  036%=      5-min Rain = 0
KGO1 220225Z 12014KT 14/M01 A2959 RMK A01 T01361011  RH  036%=      5-min Rain = 0
KGO1 220226Z 12013KT 14/M01 A2959 RMK A01 T01361010  RH  037%=      5-min Rain = 0
KGO1 220227Z 13013KT 14/M01 A2959 RMK A01 T01351010  RH  037%=      5-min Rain = 0
KGO1 220228Z 13014KT 13/M01 A2959 RMK A01 T01341010  RH  037%=      5-min Rain = 0
KGO1 220229Z 12013KT 13/M01 A2959 RMK A01 T01341010  RH  037%=      5-min Rain = 0
KGO1 220230Z 13013KT 13/M01 A2959 RMK A01 T01341011  RH  037%=      5-min Rain = 0
KGO1 220231Z 13013KT 13/M01 A2959 RMK A01 T01341010  RH  037%=      5-min Rain = 0
KGO1 220232Z 13012KT 13/M01 A2959 RMK A01 T01341010  RH  037%=      5-min Rain = 0
KGO1 220233Z 13015KT 13/M01 A2959 RMK A01 T01321010  RH  037%=      5-min Rain = 0
KGO1 220234Z 13015KT 13/M01 A2959 RMK A01 T01321010  RH  037%=      5-min Rain = 0
KGO1 220235Z 13015KT 13/M01 A2959 RMK A01 T01341010  RH  037%=      5-min Rain = 0
KGO1 220236Z 13014KT 13/M01 A2959 RMK A01 T01341010  RH  037%=      5-min Rain = 0
KGO1 220237Z 13014KT 13/M01 A2959 RMK A01 T01341010  RH  037%=      5-min Rain = 0
KGO1 220238Z 13014KT 13/M01 A2959 RMK A01 T01341009  RH  037%=      5-min Rain = 0
KGO1 220239Z 13015KT 13/M01 A2959 RMK A01 T01331010  RH  037%=      5-min Rain = 0
KGO1 220240Z 13015KT 13/M01 A2959 RMK A01 T01341010  RH  037%=      5-min Rain = 0
KGO1 220241Z 13015KT 13/M01 A2959 RMK A01 T01341009  RH  037%=      5-min Rain = 0
KGO1 220242Z 13016KT 13/M01 A2959 RMK A01 T01331009  RH  037%=      5-min Rain = 0
KGO1 220243Z 13015KT 13/M01 A2959 RMK A01 T01331009  RH  038%=      5-min Rain = 0
KGO1 220244Z 13016KT 13/M01 A2959 RMK A01 T01331009  RH  038%=      5-min Rain = 0
KGO1 220245Z 13017KT 13/M01 A2959 RMK A01 T01331008  RH  038%=      5-min Rain = 0
KGO1 220246Z 13016KT 13/M01 A2959 RMK A01 T01341008  RH  038%=      5-min Rain = 0
KGO1 220247Z 13016KT 13/M01 A2959 RMK A01 T01341009  RH  037%=      5-min Rain = 0
KGO1 220248Z 13017KT 13/M01 A2959 RMK A01 T01341008  RH  037%=      5-min Rain = 0
KGO1 220249Z 13015KT 13/M01 A2959 RMK A01 T01341008  RH  037%=      5-min Rain = 0
KGO1 220250Z 13015KT 13/M01 A2959 RMK A01 T01341008  RH  038%=      5-min Rain = 0
KGO1 220251Z 13014KT 13/M01 A2959 RMK A01 T01341008  RH  038%=      5-min Rain = 0
KGO1 220252Z 13015KT 13/M01 A2959 RMK A01 T01331008  RH  038%=      5-min Rain = 0
KGO1 220253Z 13013KT 13/M01 A2959 RMK A01 T01331008  RH  038%=      5-min Rain = 0
KGO1 220254Z 13013KT 13/M01 A2959 RMK A01 T01311008  RH  038%=      5-min Rain = 0
KGO1 220255Z 13016KT 13/M01 A2959 RMK A01 T01301008  RH  038%=      5-min Rain = 0
KGO1 220256Z 13014KT 13/M01 A2959 RMK A01 T01301008  RH  039%=      5-min Rain = 0
KGO1 220257Z 13014KT 13/M01 A2959 RMK A01 T01301007  RH  039%=      5-min Rain = 0
KGO1 220258Z 13013KT 13/M01 A2959 RMK A01 T01301007  RH  039%=      5-min Rain = 0
KGO1 220259Z 13014KT 13/M01 A2959 RMK A01 T01301007  RH  039%=      5-min Rain = 0
KGO1 220300Z 13015KT 13/M01 A2958 RMK A01 T01301007  RH  039%=      5-min Rain = 0
KGO1 220301Z 13012KT 13/M01 A2958 RMK A01 T01291007  RH  039%=      5-min Rain = 0
KGO1 220302Z 13013KT 13/M01 A2959 RMK A01 T01291007  RH  039%=      5-min Rain = 0
KGO1 220303Z 13012KT 13/M01 A2959 RMK A01 T01281007  RH  039%=      5-min Rain = 0
KGO1 220304Z 13013KT 13/M01 A2958 RMK A01 T01271006  RH  040%=      5-min Rain = 0
KGO1 220305Z 13012KT 13/M01 A2959 RMK A01 T01261006  RH  040%=      5-min Rain = 0
KGO1 220306Z 13013KT 13/M01 A2959 RMK A01 T01251007  RH  040%=      5-min Rain = 0
KGO1 220307Z 14011KT 13/M01 A2959 RMK A01 T01251007  RH  040%=      5-min Rain = 0
KGO1 220308Z 14012KT 13/M01 A2959 RMK A01 T01251007  RH  040%=      5-min Rain = 0
KGO1 220309Z 14011KT 12/M01 A2959 RMK A01 T01241007  RH  040%=      5-min Rain = 0
KGO1 220310Z 14011KT 12/M01 A2959 RMK A01 T01231007  RH  041%=      5-min Rain = 0
KGO1 220311Z 14010KT 12/M01 A2959 RMK A01 T01221007  RH  041%=      5-min Rain = 0
KGO1 220312Z 14010KT 12/M01 A2959 RMK A01 T01211007  RH  041%=      5-min Rain = 0
KGO1 220313Z 14010KT 12/M01 A2959 RMK A01 T01201008  RH  041%=      5-min Rain = 0
KGO1 220314Z 14010KT 12/M01 A2959 RMK A01 T01191008  RH  041%=      5-min Rain = 0
KGO1 220315Z 14009KT 12/M01 A2959 RMK A01 T01191008  RH  041%=      5-min Rain = 0
KGO1 220316Z 14009KT 12/M01 A2959 RMK A01 T01191008  RH  041%=      5-min Rain = 0
KGO1 220317Z 14009KT 12/M01 A2959 RMK A01 T01191008  RH  042%=      5-min Rain = 0
KGO1 220318Z 14010KT 12/M01 A2959 RMK A01 T01181008  RH  042%=      5-min Rain = 0
KGO1 220319Z 15010KT 12/M01 A2959 RMK A01 T01171008  RH  042%=      5-min Rain = 0
KGO1 220320Z 15009KT 12/M01 A2959 RMK A01 T01171007  RH  042%=      5-min Rain = 0
KGO1 220321Z 15009KT 12/M01 A2959 RMK A01 T01171007  RH  042%=      5-min Rain = 0
KGO1 220322Z 14010KT 12/M01 A2959 RMK A01 T01171007  RH  042%=      5-min Rain = 0
KGO1 220323Z 14010KT 12/M01 A2959 RMK A01 T01161008  RH  042%=      5-min Rain = 0
KGO1 220324Z 14010KT 12/M01 A2959 RMK A01 T01161008  RH  042%=      5-min Rain = 0
KGO1 220325Z 14010KT 12/M01 A2959 RMK A01 T01161008  RH  042%=      5-min Rain = 0
KGO1 220326Z 15011KT 12/M01 A2959 RMK A01 T01161008  RH  042%=      5-min Rain = 0
KGO1 220327Z 14010KT 12/M01 A2959 RMK A01 T01161007  RH  042%=      5-min Rain = 0
KGO1 220328Z 14011KT 12/M01 A2959 RMK A01 T01161007  RH  042%=      5-min Rain = 0
KGO1 220329Z 14010KT 12/M01 A2959 RMK A01 T01161007  RH  043%=      5-min Rain = 0
KGO1 220330Z 14009KT 12/M01 A2959 RMK A01 T01151007  RH  043%=      5-min Rain = 0
KGO1 220331Z 15010KT 11/M01 A2959 RMK A01 T01141008  RH  043%=      5-min Rain = 0
KGO1 220332Z 15010KT 11/M01 A2959 RMK A01 T01131007  RH  043%=      5-min Rain = 0
KGO1 220333Z 15010KT 11/M01 A2959 RMK A01 T01131007  RH  043%=      5-min Rain = 0
KGO1 220334Z 15011KT 12/M01 A2959 RMK A01 T01151006  RH  043%=      5-min Rain = 0
KGO1 220335Z 15011KT 12/M01 A2959 RMK A01 T01151006  RH  043%=      5-min Rain = 0
KGO1 220336Z 14011KT 12/M01 A2959 RMK A01 T01151006  RH  043%=      5-min Rain = 0
KGO1 220337Z 14011KT 12/M01 A2959 RMK A01 T01151006  RH  043%=      5-min Rain = 0
KGO1 220338Z 14013KT 12/M01 A2959 RMK A01 T01151005  RH  043%=      5-min Rain = 0
KGO1 220339Z 14011KT 12/M00 A2959 RMK A01 T01171004  RH  043%=      5-min Rain = 0
KGO1 220340Z 14010KT 12/M00 A2959 RMK A01 T01171004  RH  043%=      5-min Rain = 0
KGO1 220341Z 15010KT 12/M01 A2959 RMK A01 T01171005  RH  043%=      5-min Rain = 0
KGO1 220342Z 14011KT 12/M01 A2959 RMK A01 T01161005  RH  043%=      5-min Rain = 0
KGO1 220343Z 13013KT 12/M00 A2959 RMK A01 T01151004  RH  044%=      5-min Rain = 0
KGO1 220344Z 13013KT 12/M00 A2959 RMK A01 T01151004  RH  044%=      5-min Rain = 0
KGO1 220345Z 13014KT 12/M00 A2959 RMK A01 T01161003  RH  044%=      5-min Rain = 0
KGO1 220346Z 13014KT 12/M00 A2959 RMK A01 T01161003  RH  044%=      5-min Rain = 0
KGO1 220347Z 13012KT 12/M00 A2959 RMK A01 T01171002  RH  044%=      5-min Rain = 0
KGO1 220348Z 13013KT 12/M00 A2959 RMK A01 T01171002  RH  044%=      5-min Rain = 0
KGO1 220349Z 14013KT 12/M00 A2959 RMK A01 T01161002  RH  044%=      5-min Rain = 0
KGO1 220350Z 14012KT 12/M00 A2959 RMK A01 T01171001  RH  044%=      5-min Rain = 0
KGO1 220351Z 15012KT 12/M00 A2959 RMK A01 T01171001  RH  044%=      5-min Rain = 0
KGO1 220352Z 14010KT 12/M00 A2959 RMK A01 T01181001  RH  044%=      5-min Rain = 0
KGO1 220353Z 14010KT 12/M00 A2959 RMK A01 T01181002  RH  044%=      5-min Rain = 0
KGO1 220354Z 15010KT 12/M00 A2959 RMK A01 T01161002  RH  044%=      5-min Rain = 0
KGO1 220355Z 14013KT 12/M00 A2959 RMK A01 T01161002  RH  044%=      5-min Rain = 0
KGO1 220356Z 13014KT 12/00 A2959 RMK A01 T011700-0  RH  044%=      5-min Rain = 0
KGO1 220357Z 14014KT 12/00 A2959 RMK A01 T01200001  RH  044%=      5-min Rain = 0
KGO1 220358Z 14013KT 12/00 A2959 RMK A01 T01210000  RH  043%=      5-min Rain = 0
KGO1 220359Z 14013KT 12/00 A2959 RMK A01 T012200-0  RH  043%=      5-min Rain = 0
KGO1 220400Z 15014G19KT 12/00 A2959 RMK A01 T01220000  RH  043%=      5-min Rain = 0
KGO1 220401Z 15011KT 12/00 A2959 RMK A01 T01240000  RH  043%=      5-min Rain = 0
KGO1 220402Z 16009KT 12/00 A2959 RMK A01 T012400-0  RH  042%=      5-min Rain = 0
KGO1 220403Z 15010KT 12/M00 A2959 RMK A01 T01221001  RH  043%=      5-min Rain = 0
KGO1 220404Z 16010KT 12/00 A2959 RMK A01 T012100-0  RH  043%=      5-min Rain = 0
KGO1 220405Z 16008KT 12/00 A2959 RMK A01 T01200000  RH  043%=      5-min Rain = 0
KGO1 220406Z 17008KT 12/M00 A2959 RMK A01 T01191001  RH  044%=      5-min Rain = 0
KGO1 220407Z 19008KT 12/00 A2959 RMK A01 T011900-0  RH  044%=      5-min Rain = 0
KGO1 220408Z 19009KT 12/00 A2959 RMK A01 T011900-0  RH  044%=      5-min Rain = 0
KGO1 220409Z 17008KT 12/00 A2959 RMK A01 T011900-0  RH  044%=      5-min Rain = 0
KGO1 220410Z 17010KT 12/00 A2959 RMK A01 T012000-0  RH  044%=      5-min Rain = 0
KGO1 220411Z 18010KT 12/00 A2959 RMK A01 T012000-0  RH  044%=      5-min Rain = 0
KGO1 220412Z 18010KT 12/00 A2959 RMK A01 T01190000  RH  044%=      5-min Rain = 0
KGO1 220413Z 17009KT 12/00 A2959 RMK A01 T01190000  RH  044%=      5-min Rain = 0
KGO1 220414Z 17010KT 12/00 A2959 RMK A01 T01190000  RH  044%=      5-min Rain = 0
KGO1 220415Z 17010KT 12/M00 A2959 RMK A01 T01181001  RH  044%=      5-min Rain = 0
KGO1 220416Z 14012KT 12/00 A2959 RMK A01 T011700-0  RH  044%=      5-min Rain = 0
KGO1 220417Z 15012KT 12/00 A2959 RMK A01 T01170000  RH  044%=      5-min Rain = 0
KGO1 220418Z 14015KT 12/00 A2959 RMK A01 T01190001  RH  044%=      5-min Rain = 0
KGO1 220419Z 14011KT 12/00 A2959 RMK A01 T01190001  RH  044%=      5-min Rain = 0
KGO1 220420Z 17010KT 12/00 A296 RMK A01 T01180000  RH  044%=      5-min Rain = 0
KGO1 220421Z 16012KT 12/00 A296 RMK A01 T01170000  RH  045%=      5-min Rain = 0
KGO1 220422Z 16011KT 12/00 A2959 RMK A01 T01160000  RH  045%=      5-min Rain = 0
KGO1 220423Z 18010KT 12/00 A2959 RMK A01 T01150000  RH  045%=      5-min Rain = 0
KGO1 220424Z 18010KT 12/00 A2959 RMK A01 T01150000  RH  045%=      5-min Rain = 0
KGO1 220425Z 17010KT 12/00 A2959 RMK A01 T01160000  RH  045%=      5-min Rain = 0
KGO1 220426Z 16011KT 12/00 A2959 RMK A01 T01170001  RH  045%=      5-min Rain = 0
KGO1 220427Z 16009KT 12/00 A2959 RMK A01 T011700-0  RH  044%=      5-min Rain = 0
KGO1 220428Z 16010KT 12/M00 A2959 RMK A01 T01161001  RH  045%=      5-min Rain = 0
KGO1 220429Z 17010G15KT 12/M00 A2959 RMK A01 T01151001  RH  045%=      5-min Rain = 0
KGO1 220430Z 19015KT 12/M01 A2959 RMK A01 T01181005  RH  043%=      5-min Rain = 0
KGO1 220431Z 19016KT 13/M01 A2959 RMK A01 T01301007  RH  039%=      5-min Rain = 0
KGO1 220432Z 19017KT 14/M01 A2959 RMK A01 T01391008  RH  036%=      5-min Rain = 0
KGO1 220433Z 19017KT 15/M01 A2959 RMK A01 T01461009  RH  034%=      5-min Rain = 0
KGO1 220434Z 19014KT 15/M01 A2959 RMK A01 T01481010  RH  034%=      5-min Rain = 0
KGO1 220435Z 20015KT 15/M01 A2959 RMK A01 T01481011  RH  034%=      5-min Rain = 0
KGO1 220436Z 19015KT 15/M01 A2959 RMK A01 T01481011  RH  033%=      5-min Rain = 0
KGO1 220437Z 17011KT 15/M01 A2959 RMK A01 T01471010  RH  034%=      5-min Rain = 0
KGO1 220438Z 16010KT 14/M01 A2959 RMK A01 T01401008  RH  036%=      5-min Rain = 0
KGO1 220439Z 15009KT 13/M01 A2959 RMK A01 T01301008  RH  039%=      5-min Rain = 0
KGO1 220440Z 15009KT 12/M01 A2959 RMK A01 T01231006  RH  041%=      5-min Rain = 0
KGO1 220441Z 15010KT 12/M01 A2959 RMK A01 T01181005  RH  043%=      5-min Rain = 0
KGO1 220442Z 15009KT 12/M00 A2959 RMK A01 T01151004  RH  044%=      5-min Rain = 0
KGO1 220443Z 16009KT 11/M00 A2959 RMK A01 T01141003  RH  044%=      5-min Rain = 0
KGO1 220444Z 16008KT 11/M00 A2959 RMK A01 T01121002  RH  045%=      5-min Rain = 0
KGO1 220445Z 17008KT 11/M00 A2959 RMK A01 T01111003  RH  045%=      5-min Rain = 0
KGO1 220446Z 17008KT 11/M00 A2959 RMK A01 T01101004  RH  045%=      5-min Rain = 0
KGO1 220447Z 17008KT 11/M00 A2959 RMK A01 T01111004  RH  045%=      5-min Rain = 0
KGO1 220448Z 17009KT 11/M01 A2959 RMK A01 T01121005  RH  044%=      5-min Rain = 0
KGO1 220449Z 18009KT 11/M00 A2959 RMK A01 T01131004  RH  044%=      5-min Rain = 0
KGO1 220450Z 18012KT 11/M01 A2959 RMK A01 T01141006  RH  044%=      5-min Rain = 0
KGO1 220451Z 19015KT 12/M01 A2959 RMK A01 T01221006  RH  041%=      5-min Rain = 0
KGO1 220452Z 19015KT 13/M01 A2959 RMK A01 T01311006  RH  039%=      5-min Rain = 0
KGO1 220453Z 18014KT 14/M01 A2959 RMK A01 T01371007  RH  037%=      5-min Rain = 0
KGO1 220454Z 18014G19KT 14/M01 A2959 RMK A01 T01391008  RH  036%=      5-min Rain = 0
KGO1 220455Z 18015KT 14/M01 A2959 RMK A01 T01401008  RH  036%=      5-min Rain = 0
KGO1 220456Z 19017KT 14/M01 A2959 RMK A01 T01401009  RH  036%=      5-min Rain = 0
KGO1 220457Z 19017KT 14/M01 A2959 RMK A01 T01421009  RH  036%=      5-min Rain = 0
KGO1 220458Z 19017KT 14/M01 A2959 RMK A01 T01431009  RH  035%=      5-min Rain = 0
KGO1 220459Z 19017KT 14/M01 A2959 RMK A01 T01431009  RH  035%=      5-min Rain = 0
KGO1 220500Z 19017KT 14/M01 A2959 RMK A01 T01431009  RH  035%=      5-min Rain = 0
KGO1 220501Z 19018KT 14/M01 A2959 RMK A01 T01441009  RH  035%=      5-min Rain = 0
KGO1 220502Z 19017KT 14/M01 A2959 RMK A01 T01441009  RH  035%=      5-min Rain = 0
KGO1 220503Z 19016KT 14/M01 A2959 RMK A01 T01441009  RH  035%=      5-min Rain = 0
KGO1 220504Z 19017KT 14/M01 A2959 RMK A01 T01431009  RH  035%=      5-min Rain = 0
KGO1 220505Z 19016KT 14/M01 A2959 RMK A01 T01431009  RH  035%=      5-min Rain = 0
KGO1 220506Z 19019G24KT 14/M01 A2959 RMK A01 T01431009  RH  035%=      5-min Rain = 0
KGO1 220507Z 19019KT 14/M01 A2959 RMK A01 T01431009  RH  035%=      5-min Rain = 0
KGO1 220508Z 19019G27KT 14/M01 A2959 RMK A01 T01431008  RH  035%=      5-min Rain = 0
KGO1 220509Z 19019KT 14/M01 A2959 RMK A01 T01431008  RH  035%=      5-min Rain = 0
KGO1 220510Z 19017KT 14/M01 A2959 RMK A01 T01431008  RH  035%=      5-min Rain = 0
KGO1 220511Z 16012G19KT 14/M01 A2959 RMK A01 T01411007  RH  036%=      5-min Rain = 0
KGO1 220512Z 16010KT 13/M01 A2959 RMK A01 T01331006  RH  038%=      5-min Rain = 0
KGO1 220513Z 16010KT 12/M01 A2959 RMK A01 T01241007  RH  040%=      5-min Rain = 0
KGO1 220514Z 16011KT 12/M01 A2959 RMK A01 T01181006  RH  042%=      5-min Rain = 0
KGO1 220515Z 17011KT 12/M01 A2959 RMK A01 T01151005  RH  043%=      5-min Rain = 0
KGO1 220516Z 17011KT 11/M01 A296 RMK A01 T01131005  RH  044%=      5-min Rain = 0
KGO1 220517Z 17011KT 11/M00 A2959 RMK A01 T01141004  RH  044%=      5-min Rain = 0
KGO1 220518Z 18011KT 11/M01 A2959 RMK A01 T01141005  RH  044%=      5-min Rain = 0
KGO1 220519Z 18011KT 11/M01 A296 RMK A01 T01141006  RH  043%=      5-min Rain = 0
KGO1 220520Z 18015KT 12/M01 A2959 RMK A01 T01161006  RH  043%=      5-min Rain = 0
KGO1 220521Z 19016KT 12/M01 A2959 RMK A01 T01241005  RH  041%=      5-min Rain = 0
KGO1 220522Z 19017KT 13/M01 A2959 RMK A01 T01301005  RH  040%=      5-min Rain = 0
KGO1 220523Z 19020KT 13/M01 A2959 RMK A01 T01341005  RH  038%=      5-min Rain = 0
KGO1 220524Z 19020KT 14/M01 A2959 RMK A01 T01361005  RH  038%=      5-min Rain = 0
KGO1 220525Z 19019KT 14/M01 A2959 RMK A01 T01371005  RH  038%=      5-min Rain = 0
KGO1 220526Z 19019KT 14/M01 A2959 RMK A01 T01361005  RH  038%=      5-min Rain = 0
KGO1 220527Z 19019KT 14/M01 A2959 RMK A01 T01361005  RH  038%=      5-min Rain = 0
KGO1 220528Z 19019KT 14/M01 A2959 RMK A01 T01361005  RH  038%=      5-min Rain = 0
KGO1 220529Z 19018KT 14/M01 A2959 RMK A01 T01361005  RH  038%=      5-min Rain = 0
KGO1 220530Z 19017KT 14/M01 A2959 RMK A01 T01351005  RH  038%=      5-min Rain = 0
KGO1 220531Z 19016KT 13/M01 A296 RMK A01 T01341005  RH  038%=      5-min Rain = 0
KGO1 220532Z 18016G21KT 13/M01 A296 RMK A01 T01331005  RH  039%=      5-min Rain = 0
KGO1 220533Z 19018KT 13/M01 A296 RMK A01 T01331005  RH  039%=      5-min Rain = 0
KGO1 220534Z 19018KT 13/M00 A296 RMK A01 T01331004  RH  039%=      5-min Rain = 0
KGO1 220535Z 19017KT 13/M01 A296 RMK A01 T01331005  RH  039%=      5-min Rain = 0
KGO1 220536Z 18016KT 13/M01 A296 RMK A01 T01331005  RH  039%=      5-min Rain = 0
KGO1 220537Z 19015KT 13/M01 A296 RMK A01 T01321005  RH  039%=      5-min Rain = 0
KGO1 220538Z 19015KT 13/M01 A296 RMK A01 T01321005  RH  039%=      5-min Rain = 0
KGO1 220539Z 19014KT 13/M01 A296 RMK A01 T01311005  RH  039%=      5-min Rain = 0
KGO1 220540Z 19015KT 13/M01 A296 RMK A01 T01311005  RH  039%=      5-min Rain = 0
KGO1 220541Z 19013KT 13/M01 A296 RMK A01 T01301005  RH  039%=      5-min Rain = 0
KGO1 220542Z 19013KT 13/M01 A296 RMK A01 T01301005  RH  039%=      5-min Rain = 0
KGO1 220543Z 19016G23KT 13/M01 A296 RMK A01 T01291005  RH  040%=      5-min Rain = 0
KGO1 220544Z 19016KT 13/M01 A296 RMK A01 T01291005  RH  040%=      5-min Rain = 0
KGO1 220545Z 19017KT 13/M00 A296 RMK A01 T01301004  RH  039%=      5-min Rain = 0
KGO1 220546Z 19017KT 13/M00 A296 RMK A01 T01311004  RH  039%=      5-min Rain = 0
KGO1 220547Z 19016KT 13/M00 A296 RMK A01 T01311004  RH  039%=      5-min Rain = 0
KGO1 220548Z 19015KT 13/M00 A296 RMK A01 T01311004  RH  039%=      5-min Rain = 0
KGO1 220549Z 19016KT 13/M01 A296 RMK A01 T01291005  RH  040%=      5-min Rain = 0
KGO1 220550Z 19016KT 13/M00 A296 RMK A01 T01291004  RH  040%=      5-min Rain = 0
KGO1 220551Z 19016KT 13/M00 A296 RMK A01 T01291004  RH  040%=      5-min Rain = 0
KGO1 220552Z 19018KT 13/M00 A296 RMK A01 T01291004  RH  040%=      5-min Rain = 0
KGO1 220553Z 20016G22KT 13/M00 A296 RMK A01 T01291004  RH  040%=      5-min Rain = 0
KGO1 220554Z 20019KT 13/M00 A296 RMK A01 T01291004  RH  040%=      5-min Rain = 0
KGO1 220555Z 19018KT 13/M00 A296 RMK A01 T01291003  RH  040%=      5-min Rain = 0
KGO1 220556Z 20017KT 13/M00 A296 RMK A01 T01291003  RH  040%=      5-min Rain = 0
KGO1 220557Z 19015KT 13/M00 A296 RMK A01 T01291003  RH  040%=      5-min Rain = 0
KGO1 220558Z 20015KT 13/M00 A296 RMK A01 T01281003  RH  041%=      5-min Rain = 0
KGO1 220559Z 20015G20KT 13/M00 A296 RMK A01 T01281003  RH  041%=      5-min Rain = 0

Page generated in 0.1468 seconds.